Observation data for Sweetwater on 05/24/2020      Previous  Date  Next       Current Mesonet Observations  Soil Data  Daily Summary Page  Observations in Plain Language
KSW1 240500Z 06011KT 17/15 A2988 RMK A01 T01710153  RH  089%=      5-min Rain = 0
KSW1 240501Z 06009KT 17/15 A2988 RMK A01 T01710152  RH  089%=      5-min Rain = 0
KSW1 240502Z 06008KT 17/15 A2988 RMK A01 T01710153  RH  089%=      5-min Rain = 0
KSW1 240503Z 06008KT 17/15 A2989 RMK A01 T01710153  RH  089%=      5-min Rain = 0
KSW1 240504Z 06009KT 17/15 A2989 RMK A01 T01710153  RH  089%=      5-min Rain = 0
KSW1 240505Z 06008KT 17/15 A2989 RMK A01 T01700153  RH  089%=      5-min Rain = 0
KSW1 240506Z 07007KT 17/15 A2989 RMK A01 T01710153  RH  089%=      5-min Rain = 0
KSW1 240507Z 06005KT 17/15 A2989 RMK A01 T01700153  RH  089%=      5-min Rain = 0
KSW1 240508Z 05005KT 17/15 A2988 RMK A01 T01700153  RH  089%=      5-min Rain = 0
KSW1 240509Z 06005KT 17/15 A2989 RMK A01 T01700153  RH  089%=      5-min Rain = 0
KSW1 240510Z 07005KT 17/15 A2989 RMK A01 T01700153  RH  090%=      5-min Rain = 0
KSW1 240511Z 06004KT 17/15 A2989 RMK A01 T01700153  RH  090%=      5-min Rain = 0
KSW1 240512Z 05004KT 17/15 A2989 RMK A01 T01700153  RH  090%=      5-min Rain = 0
KSW1 240513Z 05003KT 17/15 A2989 RMK A01 T01700153  RH  090%=      5-min Rain = 0
KSW1 240514Z 07004KT 17/15 A2989 RMK A01 T01700153  RH  090%=      5-min Rain = 0
KSW1 240515Z 10004KT 17/15 A2989 RMK A01 T01700153  RH  090%=      5-min Rain = 0
KSW1 240516Z 11003KT 17/15 A2989 RMK A01 T01690153  RH  090%=      5-min Rain = 0
KSW1 240517Z 13003KT 17/15 A2988 RMK A01 T01690153  RH  090%=      5-min Rain = 0
KSW1 240518Z 13002KT 17/15 A2988 RMK A01 T01690153  RH  090%=      5-min Rain = 0
KSW1 240519Z 12003KT 17/15 A2988 RMK A01 T01690153  RH  090%=      5-min Rain = 0
KSW1 240520Z 13004KT 17/15 A2988 RMK A01 T01700153  RH  090%=      5-min Rain = 0
KSW1 240521Z 15004KT 17/15 A2988 RMK A01 T01700153  RH  090%=      5-min Rain = 0
KSW1 240522Z 15005KT 17/15 A2988 RMK A01 T01700154  RH  090%=      5-min Rain = 0
KSW1 240523Z 14004KT 17/15 A2988 RMK A01 T01690153  RH  090%=      5-min Rain = 0
KSW1 240524Z 14004KT 17/15 A2988 RMK A01 T01690154  RH  090%=      5-min Rain = 0
KSW1 240525Z 13004KT 17/15 A2988 RMK A01 T01690153  RH  090%=      5-min Rain = 0
KSW1 240526Z 12004KT 17/15 A2988 RMK A01 T01690153  RH  090%=      5-min Rain = 0
KSW1 240527Z 10005KT 17/15 A2988 RMK A01 T01690153  RH  090%=      5-min Rain = 0
KSW1 240528Z 08006KT 17/15 A2987 RMK A01 T01690153  RH  090%=      5-min Rain = 0
KSW1 240529Z 07005KT 17/15 A2987 RMK A01 T01680153  RH  091%=      5-min Rain = 0
KSW1 240530Z 08005KT 17/15 A2987 RMK A01 T01690153  RH  091%=      5-min Rain = 0
KSW1 240531Z 10005KT 17/15 A2988 RMK A01 T01690154  RH  091%=      5-min Rain = 0
KSW1 240532Z 12005KT 17/15 A2988 RMK A01 T01680153  RH  091%=      5-min Rain = 0
KSW1 240533Z 12005KT 17/15 A2988 RMK A01 T01690154  RH  091%=      5-min Rain = 0
KSW1 240534Z 12005KT 17/15 A2988 RMK A01 T01680153  RH  091%=      5-min Rain = 0
KSW1 240535Z 11005KT 17/15 A2988 RMK A01 T01680153  RH  091%=      5-min Rain = 0
KSW1 240536Z 10004KT 17/15 A2988 RMK A01 T01680153  RH  091%=      5-min Rain = 0
KSW1 240537Z 09004KT 17/15 A2988 RMK A01 T01680153  RH  091%=      5-min Rain = 0
KSW1 240538Z 09005KT 17/15 A2988 RMK A01 T01680153  RH  091%=      5-min Rain = 0
KSW1 240539Z 08006KT 17/15 A2988 RMK A01 T01690153  RH  090%=      5-min Rain = 0
KSW1 240540Z 08006KT 17/15 A2987 RMK A01 T01690153  RH  090%=      5-min Rain = 0
KSW1 240541Z 08006KT 17/15 A2987 RMK A01 T01700153  RH  090%=      5-min Rain = 0
KSW1 240542Z 08006KT 17/15 A2987 RMK A01 T01710153  RH  089%=      5-min Rain = 0
KSW1 240543Z 09005KT 17/15 A2987 RMK A01 T01710153  RH  089%=      5-min Rain = 0
KSW1 240544Z 09005KT 17/15 A2987 RMK A01 T01720153  RH  089%=      5-min Rain = 0
KSW1 240545Z 09004KT 17/15 A2987 RMK A01 T01720152  RH  088%=      5-min Rain = 0
KSW1 240546Z 09003KT 17/15 A2987 RMK A01 T01720152  RH  088%=      5-min Rain = 0
KSW1 240547Z 10003KT 17/15 A2987 RMK A01 T01720152  RH  088%=      5-min Rain = 0
KSW1 240548Z 11001KT 17/15 A2987 RMK A01 T01720152  RH  088%=      5-min Rain = 0
KSW1 240549Z 09000KT 17/15 A2987 RMK A01 T01720153  RH  088%=      5-min Rain = 0
KSW1 240550Z 34000KT 17/15 A2987 RMK A01 T01720153  RH  089%=      5-min Rain = 0
KSW1 240551Z 25000KT 17/15 A2988 RMK A01 T01710153  RH  089%=      5-min Rain = 0
KSW1 240552Z 21001KT 17/15 A2988 RMK A01 T01700153  RH  089%=      5-min Rain = 0
KSW1 240553Z 22001KT 17/15 A2988 RMK A01 T01700153  RH  090%=      5-min Rain = 0
KSW1 240554Z 22003KT 17/15 A2988 RMK A01 T01690153  RH  090%=      5-min Rain = 0
KSW1 240555Z 23004KT 17/15 A2988 RMK A01 T01690153  RH  090%=      5-min Rain = 0
KSW1 240556Z 24003KT 17/15 A2988 RMK A01 T01690153  RH  091%=      5-min Rain = 0
KSW1 240557Z 23003KT 17/15 A2988 RMK A01 T01680153  RH  091%=      5-min Rain = 0
KSW1 240558Z 22003KT 17/15 A2988 RMK A01 T01680153  RH  090%=      5-min Rain = 0
KSW1 240559Z 22002KT 17/15 A2988 RMK A01 T01680152  RH  090%=      5-min Rain = 0
KSW1 240600Z 22002KT 17/15 A2988 RMK A01 T01690153  RH  090%=      5-min Rain = 0
KSW1 240601Z 22002KT 17/15 A2988 RMK A01 T01690153  RH  090%=      5-min Rain = 0
KSW1 240602Z 22003KT 17/15 A2988 RMK A01 T01690153  RH  090%=      5-min Rain = 0
KSW1 240603Z 23003KT 17/15 A2988 RMK A01 T01690153  RH  090%=      5-min Rain = 0
KSW1 240604Z 24003KT 17/15 A2988 RMK A01 T01690153  RH  090%=      5-min Rain = 0
KSW1 240605Z 23002KT 17/15 A2988 RMK A01 T01700153  RH  090%=      5-min Rain = 0
KSW1 240606Z 22002KT 17/15 A2988 RMK A01 T01700153  RH  090%=      5-min Rain = 0
KSW1 240607Z 22001KT 17/15 A2988 RMK A01 T01700153  RH  090%=      5-min Rain = 0
KSW1 240608Z 22001KT 17/15 A2988 RMK A01 T01700154  RH  090%=      5-min Rain = 0
KSW1 240609Z 22001KT 17/15 A2988 RMK A01 T01700154  RH  090%=      5-min Rain = 0
KSW1 240610Z 22000KT 17/15 A2988 RMK A01 T01700154  RH  090%=      5-min Rain = 0
KSW1 240611Z 22000KT 17/15 A2988 RMK A01 T01700154  RH  090%=      5-min Rain = 0
KSW1 240612Z 18000KT 17/15 A2988 RMK A01 T01700153  RH  090%=      5-min Rain = 0
KSW1 240613Z 17001KT 17/15 A2988 RMK A01 T01700153  RH  090%=      5-min Rain = 0
KSW1 240614Z 12001KT 17/15 A2988 RMK A01 T01690153  RH  090%=      5-min Rain = 0
KSW1 240615Z 10003KT 17/15 A2988 RMK A01 T01690153  RH  090%=      5-min Rain = 0
KSW1 240616Z 09003KT 17/15 A2988 RMK A01 T01680153  RH  091%=      5-min Rain = 0
KSW1 240617Z 08004KT 17/15 A2988 RMK A01 T01670153  RH  091%=      5-min Rain = 0
KSW1 240618Z 08004KT 17/15 A2988 RMK A01 T01670153  RH  091%=      5-min Rain = 0
KSW1 240619Z 08005KT 17/15 A2989 RMK A01 T01670153  RH  092%=      5-min Rain = 0
KSW1 240620Z 08005KT 17/15 A2989 RMK A01 T01670153  RH  092%=      5-min Rain = 0
KSW1 240621Z 08005KT 17/15 A2989 RMK A01 T01670154  RH  092%=      5-min Rain = 0
KSW1 240622Z 08006KT 17/15 A2989 RMK A01 T01670154  RH  092%=      5-min Rain = 0
KSW1 240623Z 07005KT 17/15 A2989 RMK A01 T01670154  RH  092%=      5-min Rain = 0
KSW1 240624Z 07006KT 17/15 A2989 RMK A01 T01670153  RH  092%=      5-min Rain = 0
KSW1 240625Z 07006KT 17/15 A2989 RMK A01 T01670153  RH  092%=      5-min Rain = 0
KSW1 240626Z 06006KT 17/15 A2989 RMK A01 T01670153  RH  092%=      5-min Rain = 0
KSW1 240627Z 06007KT 17/15 A2989 RMK A01 T01670153  RH  092%=      5-min Rain = 0
KSW1 240628Z 06007KT 17/15 A2989 RMK A01 T01670152  RH  091%=      5-min Rain = 0
KSW1 240629Z 06006KT 17/15 A2989 RMK A01 T01680152  RH  090%=      5-min Rain = 0
KSW1 240630Z 08005KT 17/15 A2989 RMK A01 T01690152  RH  090%=      5-min Rain = 0
KSW1 240631Z 09004KT 17/15 A2989 RMK A01 T01690153  RH  090%=      5-min Rain = 0
KSW1 240632Z 08005KT 17/15 A2989 RMK A01 T01690152  RH  090%=      5-min Rain = 0
KSW1 240633Z 08006KT 17/15 A2989 RMK A01 T01680152  RH  090%=      5-min Rain = 0
KSW1 240634Z 08007KT 17/15 A2989 RMK A01 T01670152  RH  091%=      5-min Rain = 0
KSW1 240635Z 09007KT 17/15 A2989 RMK A01 T01670151  RH  090%=      5-min Rain = 0
KSW1 240636Z 09007KT 17/15 A2989 RMK A01 T01680151  RH  090%=      5-min Rain = 0
KSW1 240637Z 09007KT 17/15 A2989 RMK A01 T01680151  RH  090%=      5-min Rain = 0
KSW1 240638Z 09007KT 17/15 A2989 RMK A01 T01680151  RH  090%=      5-min Rain = 0
KSW1 240639Z 09008KT 17/15 A2989 RMK A01 T01680151  RH  090%=      5-min Rain = 0
KSW1 240640Z 09009KT 17/15 A2989 RMK A01 T01680151  RH  089%=      5-min Rain = 0
KSW1 240641Z 09009KT 17/15 A2989 RMK A01 T01700151  RH  089%=      5-min Rain = 0
KSW1 240642Z 09008KT 17/15 A2989 RMK A01 T01710151  RH  088%=      5-min Rain = 0
KSW1 240643Z 09007KT 17/15 A2989 RMK A01 T01710151  RH  088%=      5-min Rain = 0
KSW1 240644Z 09007KT 17/15 A2989 RMK A01 T01710151  RH  088%=      5-min Rain = 0
KSW1 240645Z 08007KT 17/15 A2989 RMK A01 T01710151  RH  088%=      5-min Rain = 0
KSW1 240646Z 08008KT 17/15 A2989 RMK A01 T01710150  RH  087%=      5-min Rain = 0
KSW1 240647Z 08008KT 17/15 A2989 RMK A01 T01720150  RH  087%=      5-min Rain = 0
KSW1 240648Z 08009KT 17/15 A2989 RMK A01 T01730151  RH  087%=      5-min Rain = 0
KSW1 240649Z 08009KT 17/15 A2989 RMK A01 T01730151  RH  087%=      5-min Rain = 0
KSW1 240650Z 08009KT 17/15 A2989 RMK A01 T01740151  RH  087%=      5-min Rain = 0
KSW1 240651Z 09007KT 17/15 A2989 RMK A01 T01740151  RH  086%=      5-min Rain = 0
KSW1 240652Z 10007KT 17/15 A2989 RMK A01 T01740150  RH  086%=      5-min Rain = 0
KSW1 240653Z 10006KT 18/15 A2989 RMK A01 T01750149  RH  085%=      5-min Rain = 0
KSW1 240654Z 09006KT 18/15 A2989 RMK A01 T01760150  RH  084%=      5-min Rain = 0
KSW1 240655Z 09006KT 18/15 A2989 RMK A01 T01770149  RH  084%=      5-min Rain = 0
KSW1 240656Z 09005KT 18/15 A2989 RMK A01 T01770149  RH  084%=      5-min Rain = 0
KSW1 240657Z 09006KT 18/15 A2989 RMK A01 T01770149  RH  083%=      5-min Rain = 0
KSW1 240658Z 09006KT 18/15 A2989 RMK A01 T01770149  RH  083%=      5-min Rain = 0
KSW1 240659Z 10006KT 18/15 A2989 RMK A01 T01770149  RH  083%=      5-min Rain = 0
KSW1 240700Z 10006KT 18/15 A2989 RMK A01 T01770148  RH  083%=      5-min Rain = 0
KSW1 240701Z 09006KT 18/15 A2989 RMK A01 T01770148  RH  083%=      5-min Rain = 0
KSW1 240702Z 09006KT 18/15 A2989 RMK A01 T01770148  RH  083%=      5-min Rain = 0
KSW1 240703Z 09006KT 18/15 A2989 RMK A01 T01770148  RH  083%=      5-min Rain = 0
KSW1 240704Z 09008KT 18/15 A2989 RMK A01 T01770149  RH  083%=      5-min Rain = 0
KSW1 240705Z 08008KT 18/15 A2989 RMK A01 T01760148  RH  083%=      5-min Rain = 0
KSW1 240706Z 07008KT 18/15 A2989 RMK A01 T01770148  RH  083%=      5-min Rain = 0
KSW1 240707Z 06009KT 18/15 A2989 RMK A01 T01760149  RH  084%=      5-min Rain = 0
KSW1 240708Z 06009KT 18/15 A2989 RMK A01 T01760149  RH  084%=      5-min Rain = 0
KSW1 240709Z 06008KT 18/15 A2989 RMK A01 T01750149  RH  085%=      5-min Rain = 0
KSW1 240710Z 07008KT 17/15 A2989 RMK A01 T01740149  RH  085%=      5-min Rain = 0
KSW1 240711Z 08008KT 17/15 A2989 RMK A01 T01740149  RH  085%=      5-min Rain = 0
KSW1 240712Z 08008KT 17/15 A2989 RMK A01 T01740149  RH  085%=      5-min Rain = 0
KSW1 240713Z 09008KT 17/15 A2989 RMK A01 T01740149  RH  085%=      5-min Rain = 0
KSW1 240714Z 09007KT 17/15 A2989 RMK A01 T01740149  RH  085%=      5-min Rain = 0
KSW1 240715Z 10007KT 17/15 A2989 RMK A01 T01740149  RH  085%=      5-min Rain = 0
KSW1 240716Z 11007KT 17/15 A2989 RMK A01 T01740148  RH  085%=      5-min Rain = 0
KSW1 240717Z 11008KT 17/15 A2989 RMK A01 T01740149  RH  085%=      5-min Rain = 0
KSW1 240718Z 11008KT 17/15 A2989 RMK A01 T01730148  RH  085%=      5-min Rain = 0
KSW1 240719Z 11009KT 17/15 A2989 RMK A01 T01740148  RH  085%=      5-min Rain = 0
KSW1 240720Z 11009KT 18/15 A2989 RMK A01 T01750148  RH  084%=      5-min Rain = 0
KSW1 240721Z 11009KT 18/15 A2989 RMK A01 T01760148  RH  084%=      5-min Rain = 0
KSW1 240722Z 11009KT 18/15 A2989 RMK A01 T01750147  RH  084%=      5-min Rain = 0
KSW1 240723Z 10010KT 18/15 A2988 RMK A01 T01750147  RH  083%=      5-min Rain = 0
KSW1 240724Z 10009KT 18/15 A2988 RMK A01 T01760147  RH  083%=      5-min Rain = 0
KSW1 240725Z 10010KT 18/15 A2988 RMK A01 T01760147  RH  083%=      5-min Rain = 0
KSW1 240726Z 10010KT 18/15 A2988 RMK A01 T01770146  RH  082%=      5-min Rain = 0
KSW1 240727Z 10009KT 18/15 A2988 RMK A01 T01770146  RH  082%=      5-min Rain = 0
KSW1 240728Z 10010KT 18/15 A2988 RMK A01 T01780146  RH  082%=      5-min Rain = 0
KSW1 240729Z 09011KT 18/15 A2987 RMK A01 T01790146  RH  081%=      5-min Rain = 0
KSW1 240730Z 09010KT 18/15 A2987 RMK A01 T01790145  RH  081%=      5-min Rain = 0
KSW1 240731Z 11008KT 18/15 A2987 RMK A01 T01800145  RH  080%=      5-min Rain = 0
KSW1 240732Z 13008KT 18/15 A2987 RMK A01 T01790146  RH  081%=      5-min Rain = 0
KSW1 240733Z 13008KT 18/15 A2987 RMK A01 T01800146  RH  081%=      5-min Rain = 0
KSW1 240734Z 13007KT 18/15 A2987 RMK A01 T01790146  RH  081%=      5-min Rain = 0
KSW1 240735Z 12009KT 18/15 A2987 RMK A01 T01780146  RH  081%=      5-min Rain = 0
KSW1 240736Z 11009KT 18/15 A2987 RMK A01 T01780146  RH  081%=      5-min Rain = 0
KSW1 240737Z 10008KT 18/15 A2987 RMK A01 T01770146  RH  082%=      5-min Rain = 0
KSW1 240738Z 09009KT 18/15 A2987 RMK A01 T01770146  RH  082%=      5-min Rain = 0
KSW1 240739Z 09010KT 18/15 A2987 RMK A01 T01770145  RH  081%=      5-min Rain = 0
KSW1 240740Z 09010KT 18/14 A2987 RMK A01 T01770144  RH  081%=      5-min Rain = 0
KSW1 240741Z 09009KT 18/14 A2987 RMK A01 T01780144  RH  080%=      5-min Rain = 0
KSW1 240742Z 09008KT 18/14 A2987 RMK A01 T01780144  RH  080%=      5-min Rain = 0
KSW1 240743Z 09008KT 18/14 A2987 RMK A01 T01790144  RH  080%=      5-min Rain = 0
KSW1 240744Z 09008KT 18/14 A2987 RMK A01 T01790144  RH  080%=      5-min Rain = 0
KSW1 240745Z 09008KT 18/15 A2987 RMK A01 T01780145  RH  081%=      5-min Rain = 0
KSW1 240746Z 09009KT 18/14 A2987 RMK A01 T01780144  RH  081%=      5-min Rain = 0
KSW1 240747Z 09009KT 18/14 A2987 RMK A01 T01780144  RH  081%=      5-min Rain = 0
KSW1 240748Z 09009KT 18/14 A2987 RMK A01 T01780144  RH  080%=      5-min Rain = 0
KSW1 240749Z 10008KT 18/14 A2987 RMK A01 T01780143  RH  080%=      5-min Rain = 0
KSW1 240750Z 10008KT 18/14 A2987 RMK A01 T01780143  RH  080%=      5-min Rain = 0
KSW1 240751Z 11007KT 18/14 A2987 RMK A01 T01780143  RH  080%=      5-min Rain = 0
KSW1 240752Z 11007KT 18/14 A2987 RMK A01 T01780144  RH  080%=      5-min Rain = 0
KSW1 240753Z 10007KT 18/14 A2987 RMK A01 T01780144  RH  080%=      5-min Rain = 0
KSW1 240754Z 11007KT 18/14 A2987 RMK A01 T01770144  RH  081%=      5-min Rain = 0
KSW1 240755Z 11006KT 18/14 A2987 RMK A01 T01770144  RH  081%=      5-min Rain = 0
KSW1 240756Z 11006KT 18/14 A2987 RMK A01 T01770144  RH  081%=      5-min Rain = 0
KSW1 240757Z 11006KT 18/14 A2987 RMK A01 T01760143  RH  081%=      5-min Rain = 0
KSW1 240758Z 11006KT 18/14 A2987 RMK A01 T01760144  RH  081%=      5-min Rain = 0
KSW1 240759Z 11006KT 18/14 A2987 RMK A01 T01750143  RH  082%=      5-min Rain = 0
KSW1 240800Z 11007KT 18/14 A2987 RMK A01 T01750143  RH  082%=      5-min Rain = 0
KSW1 240801Z 11007KT 17/14 A2987 RMK A01 T01740143  RH  082%=      5-min Rain = 0
KSW1 240802Z 12007KT 18/14 A2987 RMK A01 T01750144  RH  082%=      5-min Rain = 0
KSW1 240803Z 12006KT 17/14 A2987 RMK A01 T01740144  RH  082%=      5-min Rain = 0
KSW1 240804Z 12007KT 17/14 A2987 RMK A01 T01740144  RH  083%=      5-min Rain = 0
KSW1 240805Z 12006KT 17/14 A2987 RMK A01 T01740144  RH  083%=      5-min Rain = 0
KSW1 240806Z 12006KT 17/14 A2987 RMK A01 T01730144  RH  083%=      5-min Rain = 0
KSW1 240807Z 13006KT 17/14 A2987 RMK A01 T01730144  RH  083%=      5-min Rain = 0
KSW1 240808Z 13006KT 17/14 A2987 RMK A01 T01730144  RH  083%=      5-min Rain = 0
KSW1 240809Z 13007KT 17/14 A2987 RMK A01 T01720144  RH  083%=      5-min Rain = 0
KSW1 240810Z 13006KT 17/14 A2987 RMK A01 T01710144  RH  084%=      5-min Rain = 0
KSW1 240811Z 13006KT 17/14 A2987 RMK A01 T01710144  RH  084%=      5-min Rain = 0
KSW1 240812Z 13006KT 17/14 A2987 RMK A01 T01700144  RH  085%=      5-min Rain = 0
KSW1 240813Z 13006KT 17/14 A2987 RMK A01 T01700144  RH  085%=      5-min Rain = 0
KSW1 240814Z 13006KT 17/14 A2987 RMK A01 T01690144  RH  085%=      5-min Rain = 0
KSW1 240815Z 13006KT 17/14 A2987 RMK A01 T01690144  RH  085%=      5-min Rain = 0
KSW1 240816Z 12006KT 17/14 A2987 RMK A01 T01690144  RH  085%=      5-min Rain = 0
KSW1 240817Z 13006KT 17/14 A2987 RMK A01 T01690144  RH  085%=      5-min Rain = 0
KSW1 240818Z 13006KT 17/14 A2987 RMK A01 T01690144  RH  085%=      5-min Rain = 0
KSW1 240819Z 13005KT 17/14 A2987 RMK A01 T01690144  RH  085%=      5-min Rain = 0
KSW1 240820Z 13005KT 17/14 A2987 RMK A01 T01690144  RH  085%=      5-min Rain = 0
KSW1 240821Z 13005KT 17/14 A2987 RMK A01 T01680144  RH  086%=      5-min Rain = 0
KSW1 240822Z 13005KT 17/14 A2987 RMK A01 T01680144  RH  086%=      5-min Rain = 0
KSW1 240823Z 13005KT 17/14 A2987 RMK A01 T01670144  RH  086%=      5-min Rain = 0
KSW1 240824Z 13005KT 17/14 A2987 RMK A01 T01670144  RH  086%=      5-min Rain = 0
KSW1 240825Z 12005KT 17/14 A2987 RMK A01 T01670143  RH  086%=      5-min Rain = 0
KSW1 240826Z 11006KT 17/14 A2987 RMK A01 T01660143  RH  086%=      5-min Rain = 0
KSW1 240827Z 12006KT 17/14 A2987 RMK A01 T01660143  RH  086%=      5-min Rain = 0
KSW1 240828Z 12006KT 17/14 A2987 RMK A01 T01660143  RH  086%=      5-min Rain = 0
KSW1 240829Z 12006KT 17/14 A2987 RMK A01 T01660143  RH  086%=      5-min Rain = 0
KSW1 240830Z 12005KT 17/14 A2987 RMK A01 T01660143  RH  087%=      5-min Rain = 0
KSW1 240831Z 13004KT 17/14 A2987 RMK A01 T01650143  RH  087%=      5-min Rain = 0
KSW1 240832Z 15004KT 17/14 A2987 RMK A01 T01660143  RH  086%=      5-min Rain = 0
KSW1 240833Z 14005KT 17/14 A2987 RMK A01 T01660143  RH  086%=      5-min Rain = 0
KSW1 240834Z 14005KT 17/14 A2987 RMK A01 T01660143  RH  086%=      5-min Rain = 0
KSW1 240835Z 15005KT 17/14 A2988 RMK A01 T01660143  RH  086%=      5-min Rain = 0
KSW1 240836Z 16005KT 17/14 A2988 RMK A01 T01660143  RH  086%=      5-min Rain = 0
KSW1 240837Z 17005KT 17/14 A2988 RMK A01 T01660144  RH  087%=      5-min Rain = 0
KSW1 240838Z 15005KT 17/14 A2988 RMK A01 T01650144  RH  087%=      5-min Rain = 0
KSW1 240839Z 15004KT 17/14 A2988 RMK A01 T01650144  RH  087%=      5-min Rain = 0
KSW1 240840Z 16005KT 17/14 A2988 RMK A01 T01660144  RH  087%=      5-min Rain = 0
KSW1 240841Z 19005KT 17/14 A2987 RMK A01 T01660143  RH  087%=      5-min Rain = 0
KSW1 240842Z 19006KT 17/14 A2987 RMK A01 T01660143  RH  086%=      5-min Rain = 0
KSW1 240843Z 17005KT 17/14 A2987 RMK A01 T01660143  RH  086%=      5-min Rain = 0
KSW1 240844Z 15005KT 17/14 A2987 RMK A01 T01670143  RH  086%=      5-min Rain = 0
KSW1 240845Z 14005KT 17/14 A2987 RMK A01 T01670142  RH  085%=      5-min Rain = 0
KSW1 240846Z 14005KT 17/14 A2987 RMK A01 T01670142  RH  085%=      5-min Rain = 0
KSW1 240847Z 14006KT 17/14 A2987 RMK A01 T01670142  RH  085%=      5-min Rain = 0
KSW1 240848Z 13006KT 17/14 A2987 RMK A01 T01660141  RH  085%=      5-min Rain = 0
KSW1 240849Z 14005KT 17/14 A2987 RMK A01 T01650141  RH  086%=      5-min Rain = 0
KSW1 240850Z 14005KT 17/14 A2987 RMK A01 T01650141  RH  086%=      5-min Rain = 0
KSW1 240851Z 15004KT 17/14 A2987 RMK A01 T01650142  RH  086%=      5-min Rain = 0
KSW1 240852Z 14004KT 16/14 A2987 RMK A01 T01640141  RH  086%=      5-min Rain = 0
KSW1 240853Z 15004KT 16/14 A2987 RMK A01 T01640142  RH  087%=      5-min Rain = 0
KSW1 240854Z 15004KT 16/14 A2987 RMK A01 T01630141  RH  087%=      5-min Rain = 0
KSW1 240855Z 15004KT 16/14 A2987 RMK A01 T01630142  RH  087%=      5-min Rain = 0
KSW1 240856Z 14005KT 16/14 A2987 RMK A01 T01630141  RH  087%=      5-min Rain = 0
KSW1 240857Z 14006KT 16/14 A2987 RMK A01 T01630141  RH  087%=      5-min Rain = 0
KSW1 240858Z 13005KT 16/14 A2987 RMK A01 T01620141  RH  087%=      5-min Rain = 0
KSW1 240859Z 13006KT 16/14 A2987 RMK A01 T01620141  RH  087%=      5-min Rain = 0
KSW1 240900Z 12006KT 16/14 A2987 RMK A01 T01620141  RH  088%=      5-min Rain = 0
KSW1 240901Z 12006KT 16/14 A2987 RMK A01 T01610141  RH  088%=      5-min Rain = 0
KSW1 240902Z 12005KT 16/14 A2987 RMK A01 T01610141  RH  088%=      5-min Rain = 0
KSW1 240903Z 13005KT 16/14 A2987 RMK A01 T01610141  RH  088%=      5-min Rain = 0
KSW1 240904Z 13005KT 16/14 A2987 RMK A01 T01610140  RH  088%=      5-min Rain = 0
KSW1 240905Z 13004KT 16/14 A2987 RMK A01 T01610141  RH  088%=      5-min Rain = 0
KSW1 240906Z 13005KT 16/14 A2987 RMK A01 T01610141  RH  088%=      5-min Rain = 0
KSW1 240907Z 13004KT 16/14 A2987 RMK A01 T01610141  RH  088%=      5-min Rain = 0
KSW1 240908Z 13004KT 16/14 A2987 RMK A01 T01610140  RH  088%=      5-min Rain = 0
KSW1 240909Z 12004KT 16/14 A2987 RMK A01 T01610140  RH  087%=      5-min Rain = 0
KSW1 240910Z 12004KT 16/14 A2987 RMK A01 T01610140  RH  087%=      5-min Rain = 0
KSW1 240911Z 12004KT 16/14 A2987 RMK A01 T01610139  RH  087%=      5-min Rain = 0
KSW1 240912Z 12004KT 16/14 A2987 RMK A01 T01610140  RH  087%=      5-min Rain = 0
KSW1 240913Z 11004KT 16/14 A2987 RMK A01 T01610140  RH  087%=      5-min Rain = 0
KSW1 240914Z 11005KT 16/14 A2987 RMK A01 T01610139  RH  087%=      5-min Rain = 0
KSW1 240915Z 11004KT 16/14 A2987 RMK A01 T01600139  RH  087%=      5-min Rain = 0
KSW1 240916Z 10004KT 16/14 A2987 RMK A01 T01600139  RH  087%=      5-min Rain = 0
KSW1 240917Z 11004KT 16/14 A2987 RMK A01 T01590139  RH  088%=      5-min Rain = 0
KSW1 240918Z 10004KT 16/14 A2987 RMK A01 T01590139  RH  088%=      5-min Rain = 0
KSW1 240919Z 09004KT 16/14 A2986 RMK A01 T01600139  RH  088%=      5-min Rain = 0
KSW1 240920Z 08005KT 16/14 A2986 RMK A01 T01600139  RH  087%=      5-min Rain = 0
KSW1 240921Z 08004KT 16/14 A2986 RMK A01 T01600138  RH  087%=      5-min Rain = 0
KSW1 240922Z 10004KT 16/14 A2986 RMK A01 T01600138  RH  087%=      5-min Rain = 0
KSW1 240923Z 11004KT 16/14 A2986 RMK A01 T01600138  RH  087%=      5-min Rain = 0
KSW1 240924Z 11004KT 16/14 A2986 RMK A01 T01610138  RH  086%=      5-min Rain = 0
KSW1 240925Z 12004KT 16/14 A2986 RMK A01 T01620137  RH  085%=      5-min Rain = 0
KSW1 240926Z 12004KT 16/14 A2986 RMK A01 T01630137  RH  085%=      5-min Rain = 0
KSW1 240927Z 12005KT 16/14 A2986 RMK A01 T01630137  RH  085%=      5-min Rain = 0
KSW1 240928Z 12004KT 16/14 A2986 RMK A01 T01630138  RH  085%=      5-min Rain = 0
KSW1 240929Z 12004KT 16/14 A2986 RMK A01 T01610137  RH  085%=      5-min Rain = 0
KSW1 240930Z 12004KT 16/14 A2986 RMK A01 T01600136  RH  086%=      5-min Rain = 0
KSW1 240931Z 13005KT 16/14 A2986 RMK A01 T01590136  RH  086%=      5-min Rain = 0
KSW1 240932Z 12005KT 16/14 A2985 RMK A01 T01580136  RH  087%=      5-min Rain = 0
KSW1 240933Z 11005KT 16/14 A2985 RMK A01 T01570135  RH  087%=      5-min Rain = 0
KSW1 240934Z 12005KT 16/14 A2985 RMK A01 T01570135  RH  087%=      5-min Rain = 0
KSW1 240935Z 13005KT 16/14 A2986 RMK A01 T01570137  RH  088%=      5-min Rain = 0
KSW1 240936Z 13006KT 16/14 A2986 RMK A01 T01570136  RH  088%=      5-min Rain = 0
KSW1 240937Z 12008KT 16/14 A2986 RMK A01 T01570137  RH  088%=      5-min Rain = 0
KSW1 240938Z 12007KT 16/14 A2985 RMK A01 T01570137  RH  087%=      5-min Rain = 0
KSW1 240939Z 12007KT 16/14 A2985 RMK A01 T01580137  RH  087%=      5-min Rain = 0
KSW1 240940Z 12006KT 16/14 A2985 RMK A01 T01580136  RH  087%=      5-min Rain = 0
KSW1 240941Z 12006KT 16/14 A2985 RMK A01 T01580137  RH  087%=      5-min Rain = 0
KSW1 240942Z 13006KT 16/14 A2986 RMK A01 T01570136  RH  087%=      5-min Rain = 0
KSW1 240943Z 14007KT 16/14 A2986 RMK A01 T01570137  RH  088%=      5-min Rain = 0
KSW1 240944Z 14008KT 16/14 A2985 RMK A01 T01570137  RH  088%=      5-min Rain = 0
KSW1 240945Z 14008KT 16/14 A2985 RMK A01 T01580137  RH  087%=      5-min Rain = 0
KSW1 240946Z 14007KT 16/14 A2985 RMK A01 T01610137  RH  086%=      5-min Rain = 0
KSW1 240947Z 14007KT 16/14 A2985 RMK A01 T01620137  RH  085%=      5-min Rain = 0
KSW1 240948Z 14007KT 16/14 A2985 RMK A01 T01630138  RH  085%=      5-min Rain = 0
KSW1 240949Z 14007KT 16/14 A2985 RMK A01 T01630138  RH  085%=      5-min Rain = 0
KSW1 240950Z 13006KT 16/14 A2985 RMK A01 T01630138  RH  085%=      5-min Rain = 0
KSW1 240951Z 13005KT 16/14 A2985 RMK A01 T01630138  RH  085%=      5-min Rain = 0
KSW1 240952Z 14005KT 16/14 A2985 RMK A01 T01620138  RH  085%=      5-min Rain = 0
KSW1 240953Z 14006KT 16/14 A2985 RMK A01 T01620138  RH  086%=      5-min Rain = 0
KSW1 240954Z 13007KT 16/14 A2985 RMK A01 T01610137  RH  086%=      5-min Rain = 0
KSW1 240955Z 13007KT 16/14 A2985 RMK A01 T01610138  RH  086%=      5-min Rain = 0
KSW1 240956Z 13007KT 16/14 A2985 RMK A01 T01610137  RH  086%=      5-min Rain = 0
KSW1 240957Z 13006KT 16/14 A2985 RMK A01 T01600137  RH  086%=      5-min Rain = 0
KSW1 240958Z 13006KT 16/14 A2985 RMK A01 T01600137  RH  086%=      5-min Rain = 0
KSW1 240959Z 13006KT 16/14 A2985 RMK A01 T01600137  RH  086%=      5-min Rain = 0
KSW1 241000Z 13006KT 16/14 A2985 RMK A01 T01600136  RH  086%=      5-min Rain = 0
KSW1 241001Z 13006KT 16/14 A2985 RMK A01 T01600136  RH  086%=      5-min Rain = 0
KSW1 241002Z 13006KT 16/14 A2985 RMK A01 T01590136  RH  086%=      5-min Rain = 0
KSW1 241003Z 14006KT 16/14 A2985 RMK A01 T01590136  RH  086%=      5-min Rain = 0
KSW1 241004Z 14006KT 16/14 A2985 RMK A01 T01600136  RH  086%=      5-min Rain = 0
KSW1 241005Z 13006KT 16/14 A2985 RMK A01 T01600136  RH  086%=      5-min Rain = 0
KSW1 241006Z 13006KT 16/14 A2985 RMK A01 T01600136  RH  085%=      5-min Rain = 0
KSW1 241007Z 13006KT 16/14 A2985 RMK A01 T01600136  RH  085%=      5-min Rain = 0
KSW1 241008Z 13005KT 16/14 A2985 RMK A01 T01600136  RH  086%=      5-min Rain = 0
KSW1 241009Z 13005KT 16/14 A2985 RMK A01 T01590136  RH  086%=      5-min Rain = 0
KSW1 241010Z 14004KT 16/14 A2985 RMK A01 T01590136  RH  086%=      5-min Rain = 0
KSW1 241011Z 14004KT 16/14 A2985 RMK A01 T01590136  RH  086%=      5-min Rain = 0
KSW1 241012Z 13004KT 16/14 A2985 RMK A01 T01590136  RH  086%=      5-min Rain = 0
KSW1 241013Z 13004KT 16/14 A2985 RMK A01 T01590136  RH  086%=      5-min Rain = 0
KSW1 241014Z 13004KT 16/14 A2985 RMK A01 T01590135  RH  086%=      5-min Rain = 0
KSW1 241015Z 14004KT 16/14 A2985 RMK A01 T01580135  RH  086%=      5-min Rain = 0
KSW1 241016Z 13003KT 16/14 A2985 RMK A01 T01580135  RH  086%=      5-min Rain = 0
KSW1 241017Z 13003KT 16/14 A2985 RMK A01 T01570135  RH  086%=      5-min Rain = 0
KSW1 241018Z 13003KT 16/14 A2985 RMK A01 T01570135  RH  087%=      5-min Rain = 0
KSW1 241019Z 14003KT 16/14 A2985 RMK A01 T01570135  RH  087%=      5-min Rain = 0
KSW1 241020Z 13004KT 16/14 A2985 RMK A01 T01570135  RH  087%=      5-min Rain = 0
KSW1 241021Z 13004KT 16/14 A2985 RMK A01 T01560135  RH  087%=      5-min Rain = 0
KSW1 241022Z 12005KT 16/13 A2985 RMK A01 T01560134  RH  087%=      5-min Rain = 0
KSW1 241023Z 12005KT 16/14 A2985 RMK A01 T01560135  RH  087%=      5-min Rain = 0
KSW1 241024Z 12005KT 16/13 A2985 RMK A01 T01560134  RH  087%=      5-min Rain = 0
KSW1 241025Z 12006KT 16/13 A2985 RMK A01 T01560134  RH  087%=      5-min Rain = 0
KSW1 241026Z 11007KT 16/13 A2985 RMK A01 T01550134  RH  087%=      5-min Rain = 0
KSW1 241027Z 12007KT 16/13 A2985 RMK A01 T01550134  RH  087%=      5-min Rain = 0
KSW1 241028Z 12007KT 16/13 A2985 RMK A01 T01550134  RH  087%=      5-min Rain = 0
KSW1 241029Z 11007KT 16/13 A2984 RMK A01 T01550134  RH  087%=      5-min Rain = 0
KSW1 241030Z 11008KT 16/13 A2984 RMK A01 T01550134  RH  087%=      5-min Rain = 0
KSW1 241031Z 11008KT 16/13 A2984 RMK A01 T01550134  RH  087%=      5-min Rain = 0
KSW1 241032Z 11008KT 16/13 A2985 RMK A01 T01560134  RH  087%=      5-min Rain = 0
KSW1 241033Z 12008KT 16/14 A2984 RMK A01 T01570135  RH  087%=      5-min Rain = 0
KSW1 241034Z 12007KT 16/14 A2985 RMK A01 T01580135  RH  086%=      5-min Rain = 0
KSW1 241035Z 12007KT 16/14 A2985 RMK A01 T01590135  RH  085%=      5-min Rain = 0
KSW1 241036Z 11007KT 16/14 A2985 RMK A01 T01600135  RH  085%=      5-min Rain = 0
KSW1 241037Z 11006KT 16/14 A2985 RMK A01 T01600135  RH  085%=      5-min Rain = 0
KSW1 241038Z 11006KT 16/14 A2985 RMK A01 T01610135  RH  085%=      5-min Rain = 0
KSW1 241039Z 12006KT 16/14 A2985 RMK A01 T01620136  RH  085%=      5-min Rain = 0
KSW1 241040Z 12006KT 16/14 A2985 RMK A01 T01610135  RH  084%=      5-min Rain = 0
KSW1 241041Z 11006KT 16/14 A2985 RMK A01 T01620135  RH  084%=      5-min Rain = 0
KSW1 241042Z 11006KT 16/14 A2985 RMK A01 T01620135  RH  084%=      5-min Rain = 0
KSW1 241043Z 10007KT 16/14 A2985 RMK A01 T01630135  RH  084%=      5-min Rain = 0
KSW1 241044Z 10006KT 16/14 A2985 RMK A01 T01630136  RH  084%=      5-min Rain = 0
KSW1 241045Z 10006KT 16/14 A2985 RMK A01 T01630136  RH  084%=      5-min Rain = 0
KSW1 241046Z 10006KT 16/14 A2985 RMK A01 T01630136  RH  084%=      5-min Rain = 0
KSW1 241047Z 10006KT 16/14 A2985 RMK A01 T01620136  RH  085%=      5-min Rain = 0
KSW1 241048Z 10006KT 16/14 A2985 RMK A01 T01620137  RH  085%=      5-min Rain = 0
KSW1 241049Z 10006KT 16/14 A2985 RMK A01 T01630137  RH  085%=      5-min Rain = 0
KSW1 241050Z 09005KT 16/14 A2986 RMK A01 T01630137  RH  085%=      5-min Rain = 0
KSW1 241051Z 08005KT 16/14 A2986 RMK A01 T01630138  RH  085%=      5-min Rain = 0
KSW1 241052Z 07004KT 16/14 A2986 RMK A01 T01640138  RH  085%=      5-min Rain = 0
KSW1 241053Z 07005KT 16/14 A2986 RMK A01 T01640138  RH  085%=      5-min Rain = 0
KSW1 241054Z 07005KT 16/14 A2986 RMK A01 T01640138  RH  085%=      5-min Rain = 0
KSW1 241055Z 07005KT 16/14 A2986 RMK A01 T01640138  RH  084%=      5-min Rain = 0
KSW1 241056Z 08005KT 16/14 A2986 RMK A01 T01640138  RH  084%=      5-min Rain = 0
KSW1 241057Z 08004KT 16/14 A2986 RMK A01 T01640138  RH  085%=      5-min Rain = 0
KSW1 241058Z 07005KT 16/14 A2986 RMK A01 T01630137  RH  085%=      5-min Rain = 0
KSW1 241059Z 08004KT 16/14 A2986 RMK A01 T01620137  RH  085%=      5-min Rain = 0
KSW1 241100Z 08004KT 16/14 A2986 RMK A01 T01610137  RH  085%=      5-min Rain = 0
KSW1 241101Z 08004KT 16/14 A2986 RMK A01 T01610137  RH  086%=      5-min Rain = 0
KSW1 241102Z 08004KT 16/14 A2986 RMK A01 T01610137  RH  086%=      5-min Rain = 0
KSW1 241103Z 09004KT 16/14 A2986 RMK A01 T01600137  RH  086%=      5-min Rain = 0
KSW1 241104Z 09003KT 16/14 A2986 RMK A01 T01600137  RH  086%=      5-min Rain = 0
KSW1 241105Z 10003KT 16/14 A2986 RMK A01 T01600137  RH  086%=      5-min Rain = 0
KSW1 241106Z 10003KT 16/14 A2986 RMK A01 T01600137  RH  086%=      5-min Rain = 0
KSW1 241107Z 11003KT 16/14 A2986 RMK A01 T01610137  RH  086%=      5-min Rain = 0
KSW1 241108Z 12003KT 16/14 A2986 RMK A01 T01600137  RH  086%=      5-min Rain = 0
KSW1 241109Z 14003KT 16/14 A2986 RMK A01 T01600137  RH  086%=      5-min Rain = 0
KSW1 241110Z 15003KT 16/14 A2986 RMK A01 T01600137  RH  086%=      5-min Rain = 0
KSW1 241111Z 15004KT 16/14 A2986 RMK A01 T01600137  RH  086%=      5-min Rain = 0
KSW1 241112Z 15004KT 16/14 A2987 RMK A01 T01610137  RH  086%=      5-min Rain = 0
KSW1 241113Z 15005KT 16/14 A2987 RMK A01 T01620137  RH  085%=      5-min Rain = 0
KSW1 241114Z 15004KT 16/14 A2987 RMK A01 T01630138  RH  085%=      5-min Rain = 0
KSW1 241115Z 16004KT 16/14 A2987 RMK A01 T01630138  RH  085%=      5-min Rain = 0
KSW1 241116Z 16004KT 16/14 A2987 RMK A01 T01640138  RH  085%=      5-min Rain = 0
KSW1 241117Z 17004KT 16/14 A2987 RMK A01 T01640138  RH  084%=      5-min Rain = 0
KSW1 241118Z 20004KT 16/14 A2987 RMK A01 T01640137  RH  084%=      5-min Rain = 0
KSW1 241119Z 23003KT 16/14 A2987 RMK A01 T01640137  RH  084%=      5-min Rain = 0
KSW1 241120Z 24003KT 16/14 A2987 RMK A01 T01610135  RH  085%=      5-min Rain = 0
KSW1 241121Z 24003KT 16/14 A2987 RMK A01 T01570135  RH  086%=      5-min Rain = 0
KSW1 241122Z 24003KT 16/13 A2987 RMK A01 T01550134  RH  087%=      5-min Rain = 0
KSW1 241123Z 24003KT 15/13 A2987 RMK A01 T01530134  RH  088%=      5-min Rain = 0
KSW1 241124Z 24003KT 15/13 A2987 RMK A01 T01530134  RH  089%=      5-min Rain = 0
KSW1 241125Z 23003KT 15/14 A2987 RMK A01 T01520135  RH  089%=      5-min Rain = 0
KSW1 241126Z 23003KT 15/14 A2987 RMK A01 T01520135  RH  089%=      5-min Rain = 0
KSW1 241127Z 24003KT 15/14 A2987 RMK A01 T01530135  RH  089%=      5-min Rain = 0
KSW1 241128Z 23003KT 15/14 A2988 RMK A01 T01530135  RH  089%=      5-min Rain = 0
KSW1 241129Z 22003KT 15/14 A2988 RMK A01 T01530135  RH  089%=      5-min Rain = 0
KSW1 241130Z 20002KT 15/14 A2988 RMK A01 T01530135  RH  089%=      5-min Rain = 0
KSW1 241131Z 20002KT 15/14 A2988 RMK A01 T01530135  RH  089%=      5-min Rain = 0
KSW1 241132Z 21002KT 15/14 A2988 RMK A01 T01540135  RH  089%=      5-min Rain = 0
KSW1 241133Z 22002KT 15/13 A2988 RMK A01 T01530133  RH  088%=      5-min Rain = 0
KSW1 241134Z 22002KT 15/13 A2988 RMK A01 T01530133  RH  088%=      5-min Rain = 0
KSW1 241135Z 23001KT 15/13 A2988 RMK A01 T01520134  RH  089%=      5-min Rain = 0
KSW1 241136Z 23001KT 15/13 A2988 RMK A01 T01520134  RH  089%=      5-min Rain = 0
KSW1 241137Z 23001KT 15/14 A2988 RMK A01 T01520135  RH  089%=      5-min Rain = 0
KSW1 241138Z 23001KT 15/14 A2988 RMK A01 T01520135  RH  089%=      5-min Rain = 0
KSW1 241139Z 23001KT 15/14 A2989 RMK A01 T01520135  RH  089%=      5-min Rain = 0
KSW1 241140Z 23001KT 15/14 A2989 RMK A01 T01520135  RH  089%=      5-min Rain = 0
KSW1 241141Z 23000KT 15/14 A2989 RMK A01 T01530135  RH  089%=      5-min Rain = 0
KSW1 241142Z 23000KT 15/14 A2989 RMK A01 T01530136  RH  089%=      5-min Rain = 0
KSW1 241143Z 23001KT 15/14 A2989 RMK A01 T01540136  RH  089%=      5-min Rain = 0
KSW1 241144Z 23001KT 16/14 A2989 RMK A01 T01550136  RH  089%=      5-min Rain = 0
KSW1 241145Z 23000KT 16/14 A2989 RMK A01 T01560136  RH  088%=      5-min Rain = 0
KSW1 241146Z 23001KT 16/14 A2989 RMK A01 T01570136  RH  088%=      5-min Rain = 0
KSW1 241147Z 23001KT 16/14 A2989 RMK A01 T01560136  RH  087%=      5-min Rain = 0
KSW1 241148Z 23001KT 16/14 A2989 RMK A01 T01560135  RH  087%=      5-min Rain = 0
KSW1 241149Z 23001KT 16/14 A2989 RMK A01 T01560135  RH  087%=      5-min Rain = 0
KSW1 241150Z 23001KT 16/14 A2989 RMK A01 T01560135  RH  087%=      5-min Rain = 0
KSW1 241151Z 23001KT 16/14 A2989 RMK A01 T01560135  RH  087%=      5-min Rain = 0
KSW1 241152Z 23001KT 16/14 A2989 RMK A01 T01570136  RH  087%=      5-min Rain = 0
KSW1 241153Z 23001KT 16/14 A2989 RMK A01 T01570136  RH  087%=      5-min Rain = 0
KSW1 241154Z 22002KT 16/14 A2989 RMK A01 T01570136  RH  087%=      5-min Rain = 0
KSW1 241155Z 22002KT 16/14 A2989 RMK A01 T01590137  RH  087%=      5-min Rain = 0
KSW1 241156Z 21002KT 16/14 A2989 RMK A01 T01600137  RH  086%=      5-min Rain = 0
KSW1 241157Z 20002KT 16/14 A2989 RMK A01 T01610137  RH  086%=      5-min Rain = 0
KSW1 241158Z 19002KT 16/14 A2989 RMK A01 T01620137  RH  085%=      5-min Rain = 0
KSW1 241159Z 18003KT 16/14 A2989 RMK A01 T01630138  RH  085%=      5-min Rain = 0
KSW1 241200Z 17003KT 16/14 A2989 RMK A01 T01640138  RH  085%=      5-min Rain = 0
KSW1 241201Z 16004KT 16/14 A2989 RMK A01 T01640137  RH  084%=      5-min Rain = 0
KSW1 241202Z 15003KT 16/13 A2989 RMK A01 T01620133  RH  083%=      5-min Rain = 0
KSW1 241203Z 15003KT 16/13 A2989 RMK A01 T01580132  RH  084%=      5-min Rain = 0
KSW1 241204Z 15003KT 16/13 A2989 RMK A01 T01560132  RH  086%=      5-min Rain = 0
KSW1 241205Z 16003KT 16/13 A2989 RMK A01 T01550133  RH  087%=      5-min Rain = 0
KSW1 241206Z 17003KT 15/13 A2989 RMK A01 T01540134  RH  087%=      5-min Rain = 0
KSW1 241207Z 17003KT 15/13 A2989 RMK A01 T01540134  RH  088%=      5-min Rain = 0
KSW1 241208Z 17003KT 16/14 A2989 RMK A01 T01550135  RH  088%=      5-min Rain = 0
KSW1 241209Z 18003KT 16/14 A2989 RMK A01 T01560136  RH  088%=      5-min Rain = 0
KSW1 241210Z 18003KT 16/14 A2989 RMK A01 T01570137  RH  088%=      5-min Rain = 0
KSW1 241211Z 18004KT 16/14 A2989 RMK A01 T01580137  RH  087%=      5-min Rain = 0
KSW1 241212Z 18004KT 16/14 A2989 RMK A01 T01590138  RH  087%=      5-min Rain = 0
KSW1 241213Z 17004KT 16/14 A2989 RMK A01 T01600138  RH  087%=      5-min Rain = 0
KSW1 241214Z 16004KT 16/14 A2989 RMK A01 T01610138  RH  086%=      5-min Rain = 0
KSW1 241215Z 15005KT 16/14 A2989 RMK A01 T01600137  RH  086%=      5-min Rain = 0
KSW1 241216Z 15005KT 16/14 A2989 RMK A01 T01590137  RH  087%=      5-min Rain = 0
KSW1 241217Z 15005KT 16/14 A2989 RMK A01 T01590138  RH  087%=      5-min Rain = 0
KSW1 241218Z 16005KT 16/14 A2989 RMK A01 T01590138  RH  087%=      5-min Rain = 0
KSW1 241219Z 16005KT 16/14 A2989 RMK A01 T01590138  RH  087%=      5-min Rain = 0
KSW1 241220Z 17005KT 16/14 A2989 RMK A01 T01590139  RH  088%=      5-min Rain = 0
KSW1 241221Z 18005KT 16/14 A2989 RMK A01 T01600139  RH  088%=      5-min Rain = 0
KSW1 241222Z 18005KT 16/14 A2989 RMK A01 T01600140  RH  088%=      5-min Rain = 0
KSW1 241223Z 18004KT 16/14 A2989 RMK A01 T01610141  RH  088%=      5-min Rain = 0
KSW1 241224Z 18004KT 16/14 A2989 RMK A01 T01620141  RH  088%=      5-min Rain = 0
KSW1 241225Z 17004KT 16/14 A2989 RMK A01 T01630141  RH  087%=      5-min Rain = 0
KSW1 241226Z 17004KT 16/14 A2989 RMK A01 T01630141  RH  087%=      5-min Rain = 0
KSW1 241227Z 17004KT 16/14 A2989 RMK A01 T01630142  RH  087%=      5-min Rain = 0
KSW1 241228Z 16004KT 16/14 A2989 RMK A01 T01640143  RH  087%=      5-min Rain = 0
KSW1 241229Z 15004KT 16/14 A2989 RMK A01 T01640142  RH  087%=      5-min Rain = 0
KSW1 241230Z 15005KT 16/14 A2989 RMK A01 T01640143  RH  087%=      5-min Rain = 0
KSW1 241231Z 15005KT 17/14 A2989 RMK A01 T01650144  RH  088%=      5-min Rain = 0
KSW1 241232Z 15005KT 17/15 A299 RMK A01 T01660145  RH  088%=      5-min Rain = 0
KSW1 241233Z 15005KT 17/15 A2989 RMK A01 T01660146  RH  088%=      5-min Rain = 0
KSW1 241234Z 15006KT 17/15 A299 RMK A01 T01670146  RH  087%=      5-min Rain = 0
KSW1 241235Z 16006KT 17/15 A299 RMK A01 T01680146  RH  087%=      5-min Rain = 0
KSW1 241236Z 16006KT 17/15 A2989 RMK A01 T01700147  RH  087%=      5-min Rain = 0
KSW1 241237Z 15006KT 17/15 A2989 RMK A01 T01700148  RH  086%=      5-min Rain = 0
KSW1 241238Z 15005KT 17/15 A2989 RMK A01 T01710148  RH  086%=      5-min Rain = 0
KSW1 241239Z 15005KT 17/15 A2989 RMK A01 T01720148  RH  086%=      5-min Rain = 0
KSW1 241240Z 16005KT 17/15 A2989 RMK A01 T01730149  RH  086%=      5-min Rain = 0
KSW1 241241Z 15006KT 17/15 A2989 RMK A01 T01730149  RH  085%=      5-min Rain = 0
KSW1 241242Z 15006KT 17/15 A2989 RMK A01 T01740149  RH  085%=      5-min Rain = 0
KSW1 241243Z 15006KT 18/15 A2989 RMK A01 T01750150  RH  085%=      5-min Rain = 0
KSW1 241244Z 15007KT 18/15 A2989 RMK A01 T01760150  RH  085%=      5-min Rain = 0
KSW1 241245Z 15007KT 18/15 A2989 RMK A01 T01770149  RH  084%=      5-min Rain = 0
KSW1 241246Z 15007KT 18/15 A2989 RMK A01 T01770149  RH  084%=      5-min Rain = 0
KSW1 241247Z 15006KT 18/15 A2989 RMK A01 T01780150  RH  084%=      5-min Rain = 0
KSW1 241248Z 15007KT 18/15 A2989 RMK A01 T01790150  RH  083%=      5-min Rain = 0
KSW1 241249Z 15007KT 18/15 A2989 RMK A01 T01800151  RH  083%=      5-min Rain = 0
KSW1 241250Z 15007KT 18/15 A2989 RMK A01 T01810151  RH  082%=      5-min Rain = 0
KSW1 241251Z 15007KT 18/15 A2989 RMK A01 T01820150  RH  082%=      5-min Rain = 0
KSW1 241252Z 16007KT 18/15 A2988 RMK A01 T01830149  RH  081%=      5-min Rain = 0
KSW1 241253Z 16008KT 18/15 A2989 RMK A01 T01840150  RH  081%=      5-min Rain = 0
KSW1 241254Z 16006KT 18/15 A2989 RMK A01 T01840150  RH  080%=      5-min Rain = 0
KSW1 241255Z 16007KT 19/15 A2989 RMK A01 T01850151  RH  081%=      5-min Rain = 0
KSW1 241256Z 16006KT 19/15 A2989 RMK A01 T01860151  RH  080%=      5-min Rain = 0
KSW1 241257Z 16007KT 19/15 A2989 RMK A01 T01870152  RH  080%=      5-min Rain = 0
KSW1 241258Z 16006KT 19/15 A2989 RMK A01 T01880152  RH  079%=      5-min Rain = 0
KSW1 241259Z 15007KT 19/15 A2989 RMK A01 T01890152  RH  079%=      5-min Rain = 0
KSW1 241300Z 16008KT 19/15 A2989 RMK A01 T01900152  RH  078%=      5-min Rain = 0
KSW1 241301Z 15007KT 19/15 A2989 RMK A01 T01910151  RH  077%=      5-min Rain = 0
KSW1 241302Z 16008KT 19/15 A2989 RMK A01 T01920151  RH  077%=      5-min Rain = 0
KSW1 241303Z 16009KT 19/15 A2989 RMK A01 T01930151  RH  077%=      5-min Rain = 0
KSW1 241304Z 16007KT 19/15 A2989 RMK A01 T01940151  RH  076%=      5-min Rain = 0
KSW1 241305Z 16009KT 19/15 A2989 RMK A01 T01940150  RH  076%=      5-min Rain = 0
KSW1 241306Z 16008KT 19/15 A2989 RMK A01 T01940150  RH  075%=      5-min Rain = 0
KSW1 241307Z 17008KT 20/15 A2989 RMK A01 T01950149  RH  075%=      5-min Rain = 0
KSW1 241308Z 16009KT 20/15 A2989 RMK A01 T01950150  RH  075%=      5-min Rain = 0
KSW1 241309Z 17007KT 20/15 A2988 RMK A01 T01960150  RH  075%=      5-min Rain = 0
KSW1 241310Z 18009KT 20/15 A2988 RMK A01 T01970149  RH  074%=      5-min Rain = 0
KSW1 241311Z 18009KT 20/15 A2988 RMK A01 T01980150  RH  074%=      5-min Rain = 0
KSW1 241312Z 17012KT 20/15 A2988 RMK A01 T01990146  RH  072%=      5-min Rain = 0
KSW1 241313Z 17011KT 20/14 A2988 RMK A01 T02000144  RH  070%=      5-min Rain = 0
KSW1 241314Z 17013KT 20/14 A2988 RMK A01 T02010144  RH  069%=      5-min Rain = 0
KSW1 241315Z 17013KT 20/14 A2988 RMK A01 T02020143  RH  069%=      5-min Rain = 0
KSW1 241316Z 17011KT 20/14 A2988 RMK A01 T02020143  RH  069%=      5-min Rain = 0
KSW1 241317Z 17010KT 20/15 A2989 RMK A01 T02030145  RH  069%=      5-min Rain = 0
KSW1 241318Z 17013KT 20/15 A2989 RMK A01 T02040145  RH  069%=      5-min Rain = 0
KSW1 241319Z 17011KT 21/14 A2988 RMK A01 T02050144  RH  068%=      5-min Rain = 0
KSW1 241320Z 17011KT 21/14 A2989 RMK A01 T02050144  RH  068%=      5-min Rain = 0
KSW1 241321Z 17011KT 21/15 A2989 RMK A01 T02050145  RH  068%=      5-min Rain = 0
KSW1 241322Z 17013KT 21/14 A2989 RMK A01 T02060144  RH  068%=      5-min Rain = 0
KSW1 241323Z 17013KT 21/14 A2989 RMK A01 T02060143  RH  067%=      5-min Rain = 0
KSW1 241324Z 17012KT 21/14 A2989 RMK A01 T02060143  RH  067%=      5-min Rain = 0
KSW1 241325Z 17011KT 21/14 A2989 RMK A01 T02060144  RH  067%=      5-min Rain = 0
KSW1 241326Z 17013KT 21/14 A2989 RMK A01 T02070144  RH  067%=      5-min Rain = 0
KSW1 241327Z 17013KT 21/14 A2989 RMK A01 T02070143  RH  067%=      5-min Rain = 0
KSW1 241328Z 18013KT 21/14 A2989 RMK A01 T02070143  RH  067%=      5-min Rain = 0
KSW1 241329Z 17010KT 21/14 A2989 RMK A01 T02070144  RH  067%=      5-min Rain = 0
KSW1 241330Z 17010KT 21/15 A2989 RMK A01 T02070146  RH  068%=      5-min Rain = 0
KSW1 241331Z 17014KT 21/14 A2989 RMK A01 T02080144  RH  067%=      5-min Rain = 0
KSW1 241332Z 17012KT 21/14 A2989 RMK A01 T02080144  RH  067%=      5-min Rain = 0
KSW1 241333Z 17014KT 21/15 A2989 RMK A01 T02080145  RH  067%=      5-min Rain = 0
KSW1 241334Z 16013KT 21/15 A2989 RMK A01 T02080145  RH  067%=      5-min Rain = 0
KSW1 241335Z 16012KT 21/15 A2989 RMK A01 T02080145  RH  067%=      5-min Rain = 0
KSW1 241336Z 16013KT 21/15 A2989 RMK A01 T02090145  RH  067%=      5-min Rain = 0
KSW1 241337Z 17015KT 21/15 A2989 RMK A01 T02090145  RH  067%=      5-min Rain = 0
KSW1 241338Z 17013KT 21/15 A2989 RMK A01 T02090146  RH  067%=      5-min Rain = 0
KSW1 241339Z 18015KT 21/15 A2989 RMK A01 T02090145  RH  067%=      5-min Rain = 0
KSW1 241340Z 17014KT 21/15 A2989 RMK A01 T02090145  RH  067%=      5-min Rain = 0
KSW1 241341Z 17015KT 21/15 A2989 RMK A01 T02090146  RH  067%=      5-min Rain = 0
KSW1 241342Z 17013KT 21/15 A2989 RMK A01 T02090146  RH  067%=      5-min Rain = 0
KSW1 241343Z 18015KT 21/15 A2989 RMK A01 T02090147  RH  068%=      5-min Rain = 0
KSW1 241344Z 18013KT 21/15 A2989 RMK A01 T02090147  RH  068%=      5-min Rain = 0
KSW1 241345Z 18014KT 21/15 A2989 RMK A01 T02090147  RH  067%=      5-min Rain = 0
KSW1 241346Z 16017G23KT 21/15 A2989 RMK A01 T02100147  RH  067%=      5-min Rain = 0
KSW1 241347Z 17017KT 21/15 A2989 RMK A01 T02100148  RH  067%=      5-min Rain = 0
KSW1 241348Z 17014KT 21/15 A2989 RMK A01 T02100148  RH  068%=      5-min Rain = 0
KSW1 241349Z 17016KT 21/15 A2989 RMK A01 T02100148  RH  068%=      5-min Rain = 0
KSW1 241350Z 17014KT 21/15 A2989 RMK A01 T02100148  RH  068%=      5-min Rain = 0
KSW1 241351Z 18012KT 21/15 A2989 RMK A01 T02110149  RH  068%=      5-min Rain = 0
KSW1 241352Z 17013KT 21/15 A2989 RMK A01 T02120150  RH  068%=      5-min Rain = 0
KSW1 241353Z 17015KT 21/15 A2989 RMK A01 T02120150  RH  068%=      5-min Rain = 0
KSW1 241354Z 16013KT 21/15 A2989 RMK A01 T02120150  RH  068%=      5-min Rain = 0
KSW1 241355Z 17015KT 21/15 A2989 RMK A01 T02110151  RH  068%=      5-min Rain = 0
KSW1 241356Z 17014KT 21/15 A2989 RMK A01 T02110150  RH  068%=      5-min Rain = 0
KSW1 241357Z 17015KT 21/15 A2989 RMK A01 T02110151  RH  069%=      5-min Rain = 0
KSW1 241358Z 17013KT 21/15 A2989 RMK A01 T02110152  RH  069%=      5-min Rain = 0
KSW1 241359Z 16016KT 21/15 A2989 RMK A01 T02120152  RH  068%=      5-min Rain = 0
KSW1 241400Z 17020KT 21/15 A2989 RMK A01 T02130152  RH  068%=      5-min Rain = 0
KSW1 241401Z 17019KT 21/15 A2989 RMK A01 T02120152  RH  068%=      5-min Rain = 0
KSW1 241402Z 16019KT 21/15 A2989 RMK A01 T02120151  RH  068%=      5-min Rain = 0
KSW1 241403Z 17020KT 21/15 A2989 RMK A01 T02120152  RH  068%=      5-min Rain = 0
KSW1 241404Z 17018KT 21/15 A2989 RMK A01 T02120151  RH  068%=      5-min Rain = 0
KSW1 241405Z 17015KT 21/15 A2989 RMK A01 T02120153  RH  069%=      5-min Rain = 0
KSW1 241406Z 17016KT 21/15 A2989 RMK A01 T02130153  RH  069%=      5-min Rain = 0
KSW1 241407Z 17015G20KT 21/15 A2989 RMK A01 T02140153  RH  068%=      5-min Rain = 0
KSW1 241408Z 17017G23KT 22/15 A2988 RMK A01 T02150153  RH  068%=      5-min Rain = 0
KSW1 241409Z 16015KT 22/15 A2988 RMK A01 T02150152  RH  067%=      5-min Rain = 0
KSW1 241410Z 16012KT 22/15 A2988 RMK A01 T02160153  RH  067%=      5-min Rain = 0
KSW1 241411Z 18012KT 22/16 A2988 RMK A01 T02180155  RH  067%=      5-min Rain = 0
KSW1 241412Z 17016KT 22/15 A2988 RMK A01 T02200154  RH  066%=      5-min Rain = 0
KSW1 241413Z 17015KT 22/15 A2988 RMK A01 T02210152  RH  065%=      5-min Rain = 0
KSW1 241414Z 16015KT 22/15 A2988 RMK A01 T02210154  RH  066%=      5-min Rain = 0
KSW1 241415Z 16013KT 22/15 A2988 RMK A01 T02220154  RH  065%=      5-min Rain = 0
KSW1 241416Z 17014G19KT 22/15 A2988 RMK A01 T02230154  RH  065%=      5-min Rain = 0
KSW1 241417Z 17018G23KT 22/15 A2988 RMK A01 T02240154  RH  065%=      5-min Rain = 0
KSW1 241418Z 17016G21KT 22/15 A2988 RMK A01 T02230154  RH  065%=      5-min Rain = 0
KSW1 241419Z 17016KT 22/16 A2988 RMK A01 T02230155  RH  065%=      5-min Rain = 0
KSW1 241420Z 17016KT 22/16 A2989 RMK A01 T02230155  RH  065%=      5-min Rain = 0
KSW1 241421Z 17015KT 22/15 A2989 RMK A01 T02230154  RH  065%=      5-min Rain = 0
KSW1 241422Z 17017KT 22/16 A2989 RMK A01 T02240155  RH  065%=      5-min Rain = 0
KSW1 241423Z 17017KT 22/16 A2989 RMK A01 T02240155  RH  065%=      5-min Rain = 0
KSW1 241424Z 17017G22KT 22/16 A2989 RMK A01 T02240156  RH  065%=      5-min Rain = 0
KSW1 241425Z 17017KT 22/16 A2989 RMK A01 T02240156  RH  065%=      5-min Rain = 0
KSW1 241426Z 17018G23KT 23/16 A2989 RMK A01 T02250156  RH  065%=      5-min Rain = 0
KSW1 241427Z 17019KT 23/16 A2988 RMK A01 T02250156  RH  065%=      5-min Rain = 0
KSW1 241428Z 17017KT 23/16 A2988 RMK A01 T02250157  RH  065%=      5-min Rain = 0
KSW1 241429Z 17018KT 22/16 A2988 RMK A01 T02240157  RH  066%=      5-min Rain = 0
KSW1 241430Z 17021G27KT 23/16 A2988 RMK A01 T02250158  RH  066%=      5-min Rain = 0
KSW1 241431Z 17018G23KT 23/16 A2988 RMK A01 T02250159  RH  066%=      5-min Rain = 0
KSW1 241432Z 17019G25KT 22/16 A2988 RMK A01 T02240159  RH  066%=      5-min Rain = 0
KSW1 241433Z 18018KT 23/16 A2988 RMK A01 T02250160  RH  066%=      5-min Rain = 0
KSW1 241434Z 18020KT 23/16 A2988 RMK A01 T02260160  RH  066%=      5-min Rain = 0
KSW1 241435Z 17018KT 23/16 A2988 RMK A01 T02260160  RH  066%=      5-min Rain = 0
KSW1 241436Z 18018KT 23/16 A2988 RMK A01 T02250160  RH  067%=      5-min Rain = 0
KSW1 241437Z 18021KT 23/16 A2988 RMK A01 T02270161  RH  066%=      5-min Rain = 0
KSW1 241438Z 17016KT 23/16 A2988 RMK A01 T02280162  RH  066%=      5-min Rain = 0
KSW1 241439Z 16021KT 23/16 A2988 RMK A01 T02290162  RH  066%=      5-min Rain = 0
KSW1 241440Z 16019KT 23/16 A2988 RMK A01 T02290161  RH  066%=      5-min Rain = 0
KSW1 241441Z 18018KT 23/16 A2988 RMK A01 T02280162  RH  066%=      5-min Rain = 0
KSW1 241442Z 17022KT 23/16 A2988 RMK A01 T02290162  RH  066%=      5-min Rain = 0
KSW1 241443Z 18023G29KT 23/16 A2988 RMK A01 T02290161  RH  066%=      5-min Rain = 0
KSW1 241444Z 18023KT 23/16 A2988 RMK A01 T02280161  RH  066%=      5-min Rain = 0
KSW1 241445Z 18020KT 23/16 A2988 RMK A01 T02270161  RH  066%=      5-min Rain = 0
KSW1 241446Z 17019G25KT 23/16 A2988 RMK A01 T02280162  RH  066%=      5-min Rain = 0
KSW1 241447Z 18024KT 23/16 A2988 RMK A01 T02300161  RH  065%=      5-min Rain = 0
KSW1 241448Z 17021KT 23/16 A2988 RMK A01 T02290162  RH  066%=      5-min Rain = 0
KSW1 241449Z 17022G27KT 23/16 A2988 RMK A01 T02290163  RH  066%=      5-min Rain = 0
KSW1 241450Z 17020G27KT 23/16 A2988 RMK A01 T02290163  RH  066%=      5-min Rain = 0
KSW1 241451Z 17020G25KT 23/16 A2988 RMK A01 T02290162  RH  066%=      5-min Rain = 0
KSW1 241452Z 17018KT 23/16 A2988 RMK A01 T02300162  RH  066%=      5-min Rain = 0
KSW1 241453Z 18018G26KT 23/16 A2988 RMK A01 T02300164  RH  066%=      5-min Rain = 0
KSW1 241454Z 18023KT 23/16 A2988 RMK A01 T02320162  RH  065%=      5-min Rain = 0
KSW1 241455Z 18022KT 23/16 A2988 RMK A01 T02300163  RH  066%=      5-min Rain = 0
KSW1 241456Z 17021KT 23/16 A2988 RMK A01 T02300163  RH  066%=      5-min Rain = 0
KSW1 241457Z 18022KT 23/16 A2988 RMK A01 T02290163  RH  066%=      5-min Rain = 0
KSW1 241458Z 18020KT 23/16 A2988 RMK A01 T02280163  RH  066%=      5-min Rain = 0
KSW1 241459Z 17018KT 23/16 A2988 RMK A01 T02290163  RH  066%=      5-min Rain = 0
KSW1 241500Z 17018KT 23/17 A2988 RMK A01 T02310165  RH  066%=      5-min Rain = 0
KSW1 241501Z 16019G25KT 23/17 A2988 RMK A01 T02330165  RH  066%=      5-min Rain = 0
KSW1 241502Z 16016KT 23/17 A2988 RMK A01 T02330165  RH  066%=      5-min Rain = 0
KSW1 241503Z 17018G25KT 24/17 A2988 RMK A01 T02350166  RH  065%=      5-min Rain = 0
KSW1 241504Z 17022KT 23/16 A2987 RMK A01 T02340163  RH  064%=      5-min Rain = 0
KSW1 241505Z 17020KT 23/16 A2987 RMK A01 T02310163  RH  066%=      5-min Rain = 0
KSW1 241506Z 17019G25KT 23/16 A2987 RMK A01 T02300163  RH  066%=      5-min Rain = 0
KSW1 241507Z 17021G27KT 23/16 A2987 RMK A01 T02300163  RH  066%=      5-min Rain = 0
KSW1 241508Z 17019KT 23/16 A2987 RMK A01 T02310164  RH  066%=      5-min Rain = 0
KSW1 241509Z 17021G26KT 23/16 A2987 RMK A01 T02310164  RH  066%=      5-min Rain = 0
KSW1 241510Z 17021KT 23/16 A2987 RMK A01 T02310163  RH  065%=      5-min Rain = 0
KSW1 241511Z 17018KT 23/16 A2987 RMK A01 T02310163  RH  066%=      5-min Rain = 0
KSW1 241512Z 17021G26KT 23/16 A2987 RMK A01 T02320163  RH  065%=      5-min Rain = 0
KSW1 241513Z 16021G27KT 23/16 A2987 RMK A01 T02320163  RH  065%=      5-min Rain = 0
KSW1 241514Z 17016G24KT 23/16 A2987 RMK A01 T02320164  RH  066%=      5-min Rain = 0
KSW1 241515Z 17018G24KT 23/16 A2987 RMK A01 T02340164  RH  065%=      5-min Rain = 0
KSW1 241516Z 18019G24KT 23/17 A2987 RMK A01 T02340165  RH  065%=      5-min Rain = 0
KSW1 241517Z 18018G23KT 23/16 A2987 RMK A01 T02340164  RH  065%=      5-min Rain = 0
KSW1 241518Z 17020KT 23/16 A2987 RMK A01 T02330164  RH  065%=      5-min Rain = 0
KSW1 241519Z 17019KT 23/16 A2987 RMK A01 T02340164  RH  065%=      5-min Rain = 0
KSW1 241520Z 16018G23KT 23/17 A2987 RMK A01 T02340165  RH  065%=      5-min Rain = 0
KSW1 241521Z 16019G24KT 24/17 A2987 RMK A01 T02350166  RH  065%=      5-min Rain = 0
KSW1 241522Z 16018G23KT 24/17 A2987 RMK A01 T02360165  RH  064%=      5-min Rain = 0
KSW1 241523Z 16020KT 24/17 A2987 RMK A01 T02360165  RH  064%=      5-min Rain = 0
KSW1 241524Z 16017G22KT 24/17 A2987 RMK A01 T02350166  RH  065%=      5-min Rain = 0
KSW1 241525Z 17019G24KT 24/17 A2987 RMK A01 T02370166  RH  064%=      5-min Rain = 0
KSW1 241526Z 17018G24KT 24/17 A2987 RMK A01 T02380165  RH  063%=      5-min Rain = 0
KSW1 241527Z 17018KT 24/17 A2987 RMK A01 T02370165  RH  064%=      5-min Rain = 0
KSW1 241528Z 17017KT 24/17 A2987 RMK A01 T02370165  RH  064%=      5-min Rain = 0
KSW1 241529Z 17016G23KT 24/17 A2987 RMK A01 T02390166  RH  064%=      5-min Rain = 0
KSW1 241530Z 17014KT 24/17 A2987 RMK A01 T02420169  RH  064%=      5-min Rain = 0
KSW1 241531Z 17012KT 25/17 A2987 RMK A01 T02450168  RH  062%=      5-min Rain = 0
KSW1 241532Z 17017G22KT 25/17 A2987 RMK A01 T02460169  RH  062%=      5-min Rain = 0
KSW1 241533Z 17019KT 25/17 A2987 RMK A01 T02460167  RH  061%=      5-min Rain = 0
KSW1 241534Z 16020KT 24/17 A2987 RMK A01 T02430166  RH  062%=      5-min Rain = 0
KSW1 241535Z 16019KT 24/17 A2987 RMK A01 T02410166  RH  063%=      5-min Rain = 0
KSW1 241536Z 17018G23KT 24/17 A2987 RMK A01 T02420167  RH  063%=      5-min Rain = 0
KSW1 241537Z 16019KT 24/17 A2987 RMK A01 T02440168  RH  062%=      5-min Rain = 0
KSW1 241538Z 17020KT 24/17 A2987 RMK A01 T02440167  RH  062%=      5-min Rain = 0
KSW1 241539Z 17017G26KT 24/17 A2987 RMK A01 T02430168  RH  063%=      5-min Rain = 0
KSW1 241540Z 17020G25KT 24/17 A2987 RMK A01 T02440166  RH  062%=      5-min Rain = 0
KSW1 241541Z 17021KT 24/17 A2987 RMK A01 T02440165  RH  062%=      5-min Rain = 0
KSW1 241542Z 17017KT 24/17 A2987 RMK A01 T02430166  RH  062%=      5-min Rain = 0
KSW1 241543Z 18021G26KT 24/17 A2987 RMK A01 T02440168  RH  062%=      5-min Rain = 0
KSW1 241544Z 17019KT 25/17 A2987 RMK A01 T02460167  RH  062%=      5-min Rain = 0
KSW1 241545Z 17018KT 25/17 A2987 RMK A01 T02470167  RH  061%=      5-min Rain = 0
KSW1 241546Z 18017G22KT 25/17 A2987 RMK A01 T02480168  RH  061%=      5-min Rain = 0
KSW1 241547Z 18018KT 25/17 A2987 RMK A01 T02510167  RH  060%=      5-min Rain = 0
KSW1 241548Z 17018KT 25/17 A2987 RMK A01 T02500167  RH  060%=      5-min Rain = 0
KSW1 241549Z 17017KT 25/17 A2987 RMK A01 T02490169  RH  061%=      5-min Rain = 0
KSW1 241550Z 17018G25KT 25/17 A2987 RMK A01 T02490169  RH  061%=      5-min Rain = 0
KSW1 241551Z 17019G24KT 25/17 A2987 RMK A01 T02490170  RH  061%=      5-min Rain = 0
KSW1 241552Z 17016G22KT 25/17 A2987 RMK A01 T02510170  RH  061%=      5-min Rain = 0
KSW1 241553Z 17019G24KT 25/17 A2987 RMK A01 T02500170  RH  061%=      5-min Rain = 0
KSW1 241554Z 18018KT 25/17 A2987 RMK A01 T02510170  RH  061%=      5-min Rain = 0
KSW1 241555Z 18022G27KT 25/17 A2987 RMK A01 T02510170  RH  061%=      5-min Rain = 0
KSW1 241556Z 17019G24KT 25/17 A2987 RMK A01 T02490169  RH  061%=      5-min Rain = 0
KSW1 241557Z 18022G27KT 25/17 A2987 RMK A01 T02490169  RH  061%=      5-min Rain = 0
KSW1 241558Z 18021G26KT 25/17 A2987 RMK A01 T02500170  RH  061%=      5-min Rain = 0
KSW1 241559Z 17020KT 25/17 A2987 RMK A01 T02490170  RH  061%=      5-min Rain = 0
KSW1 241600Z 17021G26KT 25/17 A2987 RMK A01 T02490170  RH  062%=      5-min Rain = 0
KSW1 241601Z 18021G27KT 25/17 A2986 RMK A01 T02490169  RH  061%=      5-min Rain = 0
KSW1 241602Z 17020KT 25/17 A2987 RMK A01 T02500171  RH  062%=      5-min Rain = 0
KSW1 241603Z 16018G26KT 25/17 A2987 RMK A01 T02510173  RH  062%=      5-min Rain = 0
KSW1 241604Z 16021G26KT 25/17 A2987 RMK A01 T02530172  RH  061%=      5-min Rain = 0
KSW1 241605Z 17020KT 25/17 A2987 RMK A01 T02510172  RH  062%=      5-min Rain = 0
KSW1 241606Z 15019KT 25/17 A2987 RMK A01 T02490173  RH  063%=      5-min Rain = 0
KSW1 241607Z 17015KT 25/17 A2987 RMK A01 T02500173  RH  062%=      5-min Rain = 0
KSW1 241608Z 17018KT 25/17 A2987 RMK A01 T02530174  RH  061%=      5-min Rain = 0
KSW1 241609Z 17017KT 26/18 A2987 RMK A01 T02550175  RH  061%=      5-min Rain = 0
KSW1 241610Z 16022G27KT 26/17 A2987 RMK A01 T02550174  RH  061%=      5-min Rain = 0
KSW1 241611Z 16021KT 25/17 A2987 RMK A01 T02530172  RH  061%=      5-min Rain = 0
KSW1 241612Z 17020KT 25/17 A2987 RMK A01 T02510173  RH  062%=      5-min Rain = 0
KSW1 241613Z 17022G30KT 25/17 A2986 RMK A01 T02500173  RH  062%=      5-min Rain = 0
KSW1 241614Z 16021G26KT 25/17 A2986 RMK A01 T02500174  RH  063%=      5-min Rain = 0
KSW1 241615Z 17020G26KT 25/17 A2986 RMK A01 T02500174  RH  063%=      5-min Rain = 0
KSW1 241616Z 17022KT 25/17 A2986 RMK A01 T02500174  RH  062%=      5-min Rain = 0
KSW1 241617Z 17021G27KT 25/17 A2986 RMK A01 T02490173  RH  063%=      5-min Rain = 0
KSW1 241618Z 16021G28KT 25/18 A2986 RMK A01 T02490175  RH  064%=      5-min Rain = 0
KSW1 241619Z 17023KT 25/17 A2986 RMK A01 T02500174  RH  063%=      5-min Rain = 0
KSW1 241620Z 16016KT 25/18 A2986 RMK A01 T02490176  RH  064%=      5-min Rain = 0
KSW1 241621Z 15019KT 25/18 A2986 RMK A01 T02510176  RH  063%=      5-min Rain = 0
KSW1 241622Z 16021KT 25/18 A2986 RMK A01 T02530176  RH  062%=      5-min Rain = 0
KSW1 241623Z 17018KT 26/18 A2987 RMK A01 T02550176  RH  062%=      5-min Rain = 0
KSW1 241624Z 16019G24KT 25/18 A2986 RMK A01 T02540176  RH  062%=      5-min Rain = 0
KSW1 241625Z 16021G29KT 25/18 A2986 RMK A01 T02540177  RH  062%=      5-min Rain = 0
KSW1 241626Z 17023G28KT 26/18 A2986 RMK A01 T02550177  RH  062%=      5-min Rain = 0
KSW1 241627Z 17020G25KT 25/18 A2987 RMK A01 T02540175  RH  061%=      5-min Rain = 0
KSW1 241628Z 17019G25KT 25/18 A2987 RMK A01 T02530176  RH  062%=      5-min Rain = 0
KSW1 241629Z 17025KT 25/18 A2986 RMK A01 T02540176  RH  062%=      5-min Rain = 0
KSW1 241630Z 17020G26KT 25/18 A2987 RMK A01 T02530177  RH  062%=      5-min Rain = 0
KSW1 241631Z 17020KT 26/18 A2987 RMK A01 T02560178  RH  062%=      5-min Rain = 0
KSW1 241632Z 18021G27KT 26/18 A2987 RMK A01 T02580177  RH  061%=      5-min Rain = 0
KSW1 241633Z 16022G27KT 26/18 A2987 RMK A01 T02580177  RH  061%=      5-min Rain = 0
KSW1 241634Z 16021G26KT 26/18 A2987 RMK A01 T02570176  RH  061%=      5-min Rain = 0
KSW1 241635Z 17024KT 26/18 A2987 RMK A01 T02560176  RH  061%=      5-min Rain = 0
KSW1 241636Z 16023KT 26/18 A2987 RMK A01 T02560176  RH  061%=      5-min Rain = 0
KSW1 241637Z 16020G26KT 26/18 A2987 RMK A01 T02560176  RH  061%=      5-min Rain = 0
KSW1 241638Z 15021G26KT 26/18 A2987 RMK A01 T02560177  RH  061%=      5-min Rain = 0
KSW1 241639Z 16019G24KT 26/18 A2987 RMK A01 T02560177  RH  062%=      5-min Rain = 0
KSW1 241640Z 17017KT 26/18 A2987 RMK A01 T02560177  RH  061%=      5-min Rain = 0
KSW1 241641Z 16019G25KT 26/18 A2987 RMK A01 T02570177  RH  061%=      5-min Rain = 0
KSW1 241642Z 17019KT 26/18 A2987 RMK A01 T02580177  RH  061%=      5-min Rain = 0
KSW1 241643Z 16019G25KT 26/18 A2987 RMK A01 T02610176  RH  060%=      5-min Rain = 0
KSW1 241644Z 16018KT 26/18 A2987 RMK A01 T02600176  RH  060%=      5-min Rain = 0
KSW1 241645Z 17016KT 26/18 A2987 RMK A01 T02590177  RH  060%=      5-min Rain = 0
KSW1 241646Z 17021G26KT 26/18 A2987 RMK A01 T02600177  RH  060%=      5-min Rain = 0
KSW1 241647Z 17018G24KT 26/18 A2987 RMK A01 T02620176  RH  059%=      5-min Rain = 0
KSW1 241648Z 17017G22KT 26/18 A2987 RMK A01 T02610177  RH  060%=      5-min Rain = 0
KSW1 241649Z 17022G28KT 26/18 A2987 RMK A01 T02620176  RH  059%=      5-min Rain = 0
KSW1 241650Z 18022G27KT 26/18 A2987 RMK A01 T02600177  RH  060%=      5-min Rain = 0
KSW1 241651Z 17021G26KT 26/18 A2987 RMK A01 T02590175  RH  060%=      5-min Rain = 0
KSW1 241652Z 17020KT 26/18 A2987 RMK A01 T02590176  RH  060%=      5-min Rain = 0
KSW1 241653Z 16020KT 26/18 A2987 RMK A01 T02590177  RH  061%=      5-min Rain = 0
KSW1 241654Z 17020KT 26/18 A2987 RMK A01 T02590176  RH  060%=      5-min Rain = 0
KSW1 241655Z 17019G26KT 26/18 A2987 RMK A01 T02590177  RH  061%=      5-min Rain = 0
KSW1 241656Z 17023G28KT 26/18 A2987 RMK A01 T02600175  RH  060%=      5-min Rain = 0
KSW1 241657Z 17020KT 26/18 A2987 RMK A01 T02600175  RH  059%=      5-min Rain = 0
KSW1 241658Z 17019KT 26/18 A2987 RMK A01 T02620176  RH  059%=      5-min Rain = 0
KSW1 241659Z 17021G26KT 26/18 A2987 RMK A01 T02640176  RH  058%=      5-min Rain = 0
KSW1 241700Z 18020G28KT 26/18 A2987 RMK A01 T02640176  RH  058%=      5-min Rain = 0
KSW1 241701Z 17018G24KT 27/18 A2987 RMK A01 T02660175  RH  058%=      5-min Rain = 0
KSW1 241702Z 19020KT 27/18 A2987 RMK A01 T02660175  RH  057%=      5-min Rain = 0
KSW1 241703Z 18020G25KT 26/18 A2987 RMK A01 T02640175  RH  058%=      5-min Rain = 0
KSW1 241704Z 16021G26KT 26/18 A2987 RMK A01 T02620175  RH  059%=      5-min Rain = 0
KSW1 241705Z 17021G26KT 26/18 A2987 RMK A01 T02610176  RH  060%=      5-min Rain = 0
KSW1 241706Z 16017KT 26/18 A2988 RMK A01 T02600176  RH  060%=      5-min Rain = 0
KSW1 241707Z 15016KT 26/18 A2987 RMK A01 T02610177  RH  060%=      5-min Rain = 0
KSW1 241708Z 16016KT 26/18 A2987 RMK A01 T02640179  RH  059%=      5-min Rain = 0
KSW1 241709Z 16020KT 27/18 A2987 RMK A01 T02670179  RH  058%=      5-min Rain = 0
KSW1 241710Z 17020KT 27/18 A2987 RMK A01 T02670177  RH  058%=      5-min Rain = 0
KSW1 241711Z 17014G20KT 27/18 A2987 RMK A01 T02650178  RH  059%=      5-min Rain = 0
KSW1 241712Z 17022G28KT 27/18 A2987 RMK A01 T02670177  RH  058%=      5-min Rain = 0
KSW1 241713Z 15022KT 27/18 A2987 RMK A01 T02680178  RH  058%=      5-min Rain = 0
KSW1 241714Z 17019G24KT 27/18 A2987 RMK A01 T02670177  RH  058%=      5-min Rain = 0
KSW1 241715Z 17017G22KT 27/18 A2987 RMK A01 T02660178  RH  058%=      5-min Rain = 0
KSW1 241716Z 16018G23KT 27/18 A2987 RMK A01 T02660178  RH  059%=      5-min Rain = 0
KSW1 241717Z 18018G24KT 27/18 A2987 RMK A01 T02670178  RH  058%=      5-min Rain = 0
KSW1 241718Z 18019KT 27/18 A2987 RMK A01 T02700178  RH  057%=      5-min Rain = 0
KSW1 241719Z 18017G23KT 27/18 A2987 RMK A01 T02730179  RH  056%=      5-min Rain = 0
KSW1 241720Z 17015G24KT 27/18 A2987 RMK A01 T02740179  RH  056%=      5-min Rain = 0
KSW1 241721Z 18019G24KT 27/18 A2987 RMK A01 T02720178  RH  056%=      5-min Rain = 0
KSW1 241722Z 16017G24KT 27/18 A2987 RMK A01 T02700179  RH  057%=      5-min Rain = 0
KSW1 241723Z 15018G25KT 27/18 A2987 RMK A01 T02710177  RH  056%=      5-min Rain = 0
KSW1 241724Z 16016G21KT 27/18 A2987 RMK A01 T02700179  RH  057%=      5-min Rain = 0
KSW1 241725Z 16019KT 27/18 A2987 RMK A01 T02720179  RH  057%=      5-min Rain = 0
KSW1 241726Z 17019G24KT 27/18 A2987 RMK A01 T02740178  RH  056%=      5-min Rain = 0
KSW1 241727Z 18017KT 27/18 A2987 RMK A01 T02730178  RH  056%=      5-min Rain = 0
KSW1 241728Z 17016G21KT 28/18 A2987 RMK A01 T02750181  RH  057%=      5-min Rain = 0
KSW1 241729Z 17022KT 28/18 A2987 RMK A01 T02800179  RH  054%=      5-min Rain = 0
KSW1 241730Z 18020G25KT 28/18 A2987 RMK A01 T02750176  RH  055%=      5-min Rain = 0
KSW1 241731Z 18023KT 27/18 A2987 RMK A01 T02710176  RH  056%=      5-min Rain = 0
KSW1 241732Z 17020G27KT 27/18 A2987 RMK A01 T02700176  RH  057%=      5-min Rain = 0
KSW1 241733Z 18017KT 27/18 A2987 RMK A01 T02700177  RH  057%=      5-min Rain = 0
KSW1 241734Z 17017G26KT 27/18 A2986 RMK A01 T02720179  RH  057%=      5-min Rain = 0
KSW1 241735Z 18022G27KT 28/18 A2986 RMK A01 T02760178  RH  055%=      5-min Rain = 0
KSW1 241736Z 17022G29KT 27/18 A2986 RMK A01 T02740177  RH  055%=      5-min Rain = 0
KSW1 241737Z 17020G28KT 28/18 A2986 RMK A01 T02750176  RH  055%=      5-min Rain = 0
KSW1 241738Z 17016KT 28/18 A2986 RMK A01 T02750178  RH  055%=      5-min Rain = 0
KSW1 241739Z 18018KT 28/18 A2986 RMK A01 T02780178  RH  055%=      5-min Rain = 0
KSW1 241740Z 19019G24KT 28/18 A2986 RMK A01 T02770178  RH  055%=      5-min Rain = 0
KSW1 241741Z 18016KT 28/18 A2986 RMK A01 T02760178  RH  055%=      5-min Rain = 0
KSW1 241742Z 17018KT 28/18 A2986 RMK A01 T02760179  RH  055%=      5-min Rain = 0
KSW1 241743Z 17017KT 28/18 A2986 RMK A01 T02760180  RH  056%=      5-min Rain = 0
KSW1 241744Z 18015G20KT 28/18 A2986 RMK A01 T02770180  RH  056%=      5-min Rain = 0
KSW1 241745Z 16019G25KT 28/18 A2986 RMK A01 T02800180  RH  054%=      5-min Rain = 0
KSW1 241746Z 16019KT 28/18 A2986 RMK A01 T02800180  RH  055%=      5-min Rain = 0
KSW1 241747Z 17018KT 28/18 A2986 RMK A01 T02790180  RH  055%=      5-min Rain = 0
KSW1 241748Z 16020KT 28/18 A2986 RMK A01 T02780180  RH  055%=      5-min Rain = 0
KSW1 241749Z 15019G24KT 28/18 A2986 RMK A01 T02800179  RH  054%=      5-min Rain = 0
KSW1 241750Z 16021G30KT 28/18 A2985 RMK A01 T02830179  RH  053%=      5-min Rain = 0
KSW1 241751Z 17022KT 28/18 A2986 RMK A01 T02840178  RH  053%=      5-min Rain = 0
KSW1 241752Z 17021KT 28/18 A2986 RMK A01 T02840176  RH  052%=      5-min Rain = 0
KSW1 241753Z 17021G26KT 28/18 A2985 RMK A01 T02810177  RH  053%=      5-min Rain = 0
KSW1 241754Z 17022G28KT 28/18 A2986 RMK A01 T02820177  RH  053%=      5-min Rain = 0
KSW1 241755Z 17020G28KT 28/18 A2985 RMK A01 T02830176  RH  052%=      5-min Rain = 0
KSW1 241756Z 18021G27KT 28/18 A2985 RMK A01 T02830175  RH  052%=      5-min Rain = 0
KSW1 241757Z 17019KT 28/17 A2985 RMK A01 T02830174  RH  052%=      5-min Rain = 0
KSW1 241758Z 19019G26KT 28/18 A2985 RMK A01 T02840176  RH  052%=      5-min Rain = 0
KSW1 241759Z 19020KT 29/17 A2985 RMK A01 T02860171  RH  050%=      5-min Rain = 0
KSW1 241800Z 19018G24KT 29/17 A2985 RMK A01 T02850173  RH  051%=      5-min Rain = 0
KSW1 241801Z 18020G28KT 29/17 A2985 RMK A01 T02860174  RH  051%=      5-min Rain = 0
KSW1 241802Z 17022G27KT 29/18 A2985 RMK A01 T02870175  RH  051%=      5-min Rain = 0
KSW1 241803Z 18018KT 29/18 A2985 RMK A01 T02850175  RH  051%=      5-min Rain = 0
KSW1 241804Z 16019G28KT 28/18 A2985 RMK A01 T02840176  RH  052%=      5-min Rain = 0
KSW1 241805Z 18021KT 28/17 A2985 RMK A01 T02820174  RH  052%=      5-min Rain = 0
KSW1 241806Z 18023G28KT 28/17 A2985 RMK A01 T02830173  RH  051%=      5-min Rain = 0
KSW1 241807Z 17021G28KT 28/17 A2985 RMK A01 T02840173  RH  051%=      5-min Rain = 0
KSW1 241808Z 18024KT 29/17 A2985 RMK A01 T02850173  RH  051%=      5-min Rain = 0
KSW1 241809Z 18022G27KT 28/17 A2985 RMK A01 T02840173  RH  051%=      5-min Rain = 0
KSW1 241810Z 18017KT 28/17 A2985 RMK A01 T02840174  RH  051%=      5-min Rain = 0
KSW1 241811Z 17019KT 29/18 A2985 RMK A01 T02870175  RH  051%=      5-min Rain = 0
KSW1 241812Z 18020G27KT 29/18 A2985 RMK A01 T02870176  RH  051%=      5-min Rain = 0
KSW1 241813Z 17023G28KT 29/18 A2984 RMK A01 T02880175  RH  050%=      5-min Rain = 0
KSW1 241814Z 17020G26KT 29/18 A2984 RMK A01 T02870175  RH  051%=      5-min Rain = 0
KSW1 241815Z 19022G27KT 29/18 A2984 RMK A01 T02870175  RH  051%=      5-min Rain = 0
KSW1 241816Z 19021G26KT 29/18 A2984 RMK A01 T02870175  RH  051%=      5-min Rain = 0
KSW1 241817Z 18024G30KT 29/17 A2984 RMK A01 T02870174  RH  050%=      5-min Rain = 0
KSW1 241818Z 18024KT 29/17 A2984 RMK A01 T02880174  RH  050%=      5-min Rain = 0
KSW1 241819Z 18021G27KT 29/17 A2984 RMK A01 T02860173  RH  050%=      5-min Rain = 0
KSW1 241820Z 17019KT 29/17 A2984 RMK A01 T02850174  RH  051%=      5-min Rain = 0
KSW1 241821Z 18016KT 29/18 A2984 RMK A01 T02850175  RH  051%=      5-min Rain = 0
KSW1 241822Z 18014KT 29/18 A2984 RMK A01 T02900177  RH  051%=      5-min Rain = 0
KSW1 241823Z 18015KT 29/18 A2984 RMK A01 T02930178  RH  050%=      5-min Rain = 0
KSW1 241824Z 17022KT 30/18 A2984 RMK A01 T02970176  RH  048%=      5-min Rain = 0
KSW1 241825Z 18018G24KT 29/17 A2984 RMK A01 T02920173  RH  049%=      5-min Rain = 0
KSW1 241826Z 17019G26KT 29/18 A2984 RMK A01 T02900175  RH  050%=      5-min Rain = 0
KSW1 241827Z 18019G25KT 29/18 A2984 RMK A01 T02900175  RH  050%=      5-min Rain = 0
KSW1 241828Z 17022G27KT 29/17 A2983 RMK A01 T02890174  RH  050%=      5-min Rain = 0
KSW1 241829Z 16021KT 29/17 A2983 RMK A01 T02890174  RH  050%=      5-min Rain = 0
KSW1 241830Z 17018KT 29/18 A2983 RMK A01 T02890175  RH  050%=      5-min Rain = 0
KSW1 241831Z 18017KT 29/18 A2983 RMK A01 T02890176  RH  051%=      5-min Rain = 0
KSW1 241832Z 19021G26KT 29/18 A2983 RMK A01 T02930176  RH  049%=      5-min Rain = 0
KSW1 241833Z 18021KT 30/18 A2983 RMK A01 T02950176  RH  049%=      5-min Rain = 0
KSW1 241834Z 17019KT 29/18 A2983 RMK A01 T02940175  RH  049%=      5-min Rain = 0
KSW1 241835Z 17016KT 29/18 A2983 RMK A01 T02910175  RH  049%=      5-min Rain = 0
KSW1 241836Z 16017KT 29/18 A2983 RMK A01 T02920175  RH  049%=      5-min Rain = 0
KSW1 241837Z 16021G27KT 29/18 A2983 RMK A01 T02920175  RH  049%=      5-min Rain = 0
KSW1 241838Z 16024KT 29/18 A2983 RMK A01 T02910175  RH  050%=      5-min Rain = 0
KSW1 241839Z 17019KT 29/18 A2982 RMK A01 T02880175  RH  050%=      5-min Rain = 0
KSW1 241840Z 17018G25KT 29/17 A2982 RMK A01 T02870174  RH  050%=      5-min Rain = 0
KSW1 241841Z 17022KT 29/18 A2982 RMK A01 T02880175  RH  050%=      5-min Rain = 0
KSW1 241842Z 17021KT 29/17 A2982 RMK A01 T02890174  RH  050%=      5-min Rain = 0
KSW1 241843Z 18022G27KT 29/17 A2982 RMK A01 T02900172  RH  049%=      5-min Rain = 0
KSW1 241844Z 17020KT 29/17 A2982 RMK A01 T02920173  RH  049%=      5-min Rain = 0
KSW1 241845Z 17019KT 29/18 A2982 RMK A01 T02920175  RH  049%=      5-min Rain = 0
KSW1 241846Z 17023KT 29/17 A2982 RMK A01 T02920174  RH  049%=      5-min Rain = 0
KSW1 241847Z 18018G23KT 29/17 A2982 RMK A01 T02900173  RH  049%=      5-min Rain = 0
KSW1 241848Z 19017KT 29/17 A2982 RMK A01 T02900173  RH  049%=      5-min Rain = 0
KSW1 241849Z 18020KT 30/17 A2982 RMK A01 T02950173  RH  048%=      5-min Rain = 0
KSW1 241850Z 19022G27KT 30/17 A2982 RMK A01 T02960170  RH  047%=      5-min Rain = 0
KSW1 241851Z 19019G24KT 30/17 A2982 RMK A01 T02950173  RH  048%=      5-min Rain = 0
KSW1 241852Z 19020KT 30/17 A2982 RMK A01 T02970174  RH  048%=      5-min Rain = 0
KSW1 241853Z 18018G24KT 30/18 A2982 RMK A01 T02970175  RH  048%=      5-min Rain = 0
KSW1 241854Z 18019G24KT 30/18 A2982 RMK A01 T03000175  RH  047%=      5-min Rain = 0
KSW1 241855Z 18018KT 30/17 A2982 RMK A01 T03020173  RH  046%=      5-min Rain = 0
KSW1 241856Z 19021G26KT 30/17 A2982 RMK A01 T03000173  RH  046%=      5-min Rain = 0
KSW1 241857Z 18019KT 30/17 A2982 RMK A01 T02990173  RH  047%=      5-min Rain = 0
KSW1 241858Z 18018KT 30/17 A2982 RMK A01 T02980172  RH  047%=      5-min Rain = 0
KSW1 241859Z 18020G25KT 30/17 A2981 RMK A01 T02970173  RH  047%=      5-min Rain = 0
KSW1 241900Z 19020G25KT 30/17 A2981 RMK A01 T02970174  RH  048%=      5-min Rain = 0
KSW1 241901Z 18017KT 30/18 A2981 RMK A01 T02970175  RH  048%=      5-min Rain = 0
KSW1 241902Z 16015KT 30/18 A2981 RMK A01 T02990177  RH  048%=      5-min Rain = 0
KSW1 241903Z 17017KT 30/18 A2981 RMK A01 T03020176  RH  047%=      5-min Rain = 0
KSW1 241904Z 18019KT 30/18 A2981 RMK A01 T03020176  RH  047%=      5-min Rain = 0
KSW1 241905Z 18017KT 30/18 A2981 RMK A01 T03040175  RH  046%=      5-min Rain = 0
KSW1 241906Z 17021G27KT 30/17 A2981 RMK A01 T03020174  RH  046%=      5-min Rain = 0
KSW1 241907Z 18016KT 30/17 A2981 RMK A01 T02990173  RH  047%=      5-min Rain = 0
KSW1 241908Z 17019G25KT 30/17 A2981 RMK A01 T02980174  RH  047%=      5-min Rain = 0
KSW1 241909Z 17023G28KT 30/17 A2981 RMK A01 T02980173  RH  047%=      5-min Rain = 0
KSW1 241910Z 18020KT 30/17 A2981 RMK A01 T02980173  RH  047%=      5-min Rain = 0
KSW1 241911Z 18021KT 30/17 A2981 RMK A01 T02990171  RH  046%=      5-min Rain = 0
KSW1 241912Z 17019KT 30/17 A2981 RMK A01 T02980172  RH  047%=      5-min Rain = 0
KSW1 241913Z 18017KT 30/17 A2981 RMK A01 T02980172  RH  047%=      5-min Rain = 0
KSW1 241914Z 16016G21KT 30/18 A2981 RMK A01 T02990175  RH  047%=      5-min Rain = 0
KSW1 241915Z 18013G20KT 30/18 A2981 RMK A01 T03010176  RH  047%=      5-min Rain = 0
KSW1 241916Z 17020KT 30/18 A2981 RMK A01 T03020176  RH  047%=      5-min Rain = 0
KSW1 241917Z 16018G23KT 30/18 A2981 RMK A01 T03000176  RH  047%=      5-min Rain = 0
KSW1 241918Z 15019KT 30/18 A2981 RMK A01 T02980175  RH  048%=      5-min Rain = 0
KSW1 241919Z 15022KT 30/17 A298 RMK A01 T02970174  RH  048%=      5-min Rain = 0
KSW1 241920Z 16019KT 30/17 A2981 RMK A01 T02960174  RH  048%=      5-min Rain = 0
KSW1 241921Z 17017KT 30/17 A2981 RMK A01 T02970174  RH  048%=      5-min Rain = 0
KSW1 241922Z 18018KT 30/17 A298 RMK A01 T02990174  RH  047%=      5-min Rain = 0
KSW1 241923Z 19018G23KT 30/18 A298 RMK A01 T03020175  RH  046%=      5-min Rain = 0
KSW1 241924Z 18023KT 30/17 A298 RMK A01 T03010174  RH  047%=      5-min Rain = 0
KSW1 241925Z 18021G26KT 30/17 A298 RMK A01 T02990171  RH  046%=      5-min Rain = 0
KSW1 241926Z 17018KT 30/17 A298 RMK A01 T02990172  RH  046%=      5-min Rain = 0
KSW1 241927Z 17018KT 30/17 A298 RMK A01 T03000171  RH  046%=      5-min Rain = 0
KSW1 241928Z 18018KT 30/17 A298 RMK A01 T03000171  RH  046%=      5-min Rain = 0
KSW1 241929Z 18018G23KT 30/17 A298 RMK A01 T03010171  RH  046%=      5-min Rain = 0
KSW1 241930Z 18019G26KT 30/17 A298 RMK A01 T02990173  RH  047%=      5-min Rain = 0
KSW1 241931Z 18020KT 30/17 A298 RMK A01 T02990171  RH  046%=      5-min Rain = 0
KSW1 241932Z 19019KT 30/17 A298 RMK A01 T03000171  RH  046%=      5-min Rain = 0
KSW1 241933Z 18016KT 30/17 A298 RMK A01 T03020172  RH  046%=      5-min Rain = 0
KSW1 241934Z 18015KT 31/17 A298 RMK A01 T03060173  RH  045%=      5-min Rain = 0
KSW1 241935Z 18015KT 31/17 A298 RMK A01 T03080173  RH  045%=      5-min Rain = 0
KSW1 241936Z 18017KT 31/17 A298 RMK A01 T03090173  RH  044%=      5-min Rain = 0
KSW1 241937Z 17019G24KT 31/18 A298 RMK A01 T03100175  RH  044%=      5-min Rain = 0
KSW1 241938Z 16021KT 31/18 A298 RMK A01 T03070175  RH  045%=      5-min Rain = 0
KSW1 241939Z 17018KT 30/17 A298 RMK A01 T03030174  RH  046%=      5-min Rain = 0
KSW1 241940Z 17017G22KT 30/18 A298 RMK A01 T03020175  RH  047%=      5-min Rain = 0
KSW1 241941Z 17021G26KT 30/17 A298 RMK A01 T03030174  RH  046%=      5-min Rain = 0
KSW1 241942Z 17022KT 30/17 A298 RMK A01 T03040171  RH  045%=      5-min Rain = 0
KSW1 241943Z 17016KT 30/17 A298 RMK A01 T03020171  RH  045%=      5-min Rain = 0
KSW1 241944Z 16017G22KT 30/17 A298 RMK A01 T03020172  RH  046%=      5-min Rain = 0
KSW1 241945Z 16019KT 30/17 A298 RMK A01 T03010173  RH  046%=      5-min Rain = 0
KSW1 241946Z 17018G23KT 30/17 A2979 RMK A01 T03000174  RH  047%=      5-min Rain = 0
KSW1 241947Z 17019KT 30/17 A2979 RMK A01 T02990174  RH  047%=      5-min Rain = 0
KSW1 241948Z 17021KT 30/18 A2979 RMK A01 T03030176  RH  047%=      5-min Rain = 0
KSW1 241949Z 17016KT 30/17 A298 RMK A01 T03040173  RH  046%=      5-min Rain = 0
KSW1 241950Z 17016KT 30/17 A2979 RMK A01 T03010173  RH  046%=      5-min Rain = 0
KSW1 241951Z 17017G23KT 30/17 A2979 RMK A01 T03030174  RH  046%=      5-min Rain = 0
KSW1 241952Z 16020G25KT 31/17 A2979 RMK A01 T03050171  RH  045%=      5-min Rain = 0
KSW1 241953Z 16014KT 30/17 A2979 RMK A01 T03030173  RH  045%=      5-min Rain = 0
KSW1 241954Z 17019G25KT 31/18 A2979 RMK A01 T03070175  RH  045%=      5-min Rain = 0
KSW1 241955Z 17016KT 31/17 A2979 RMK A01 T03050172  RH  045%=      5-min Rain = 0
KSW1 241956Z 17019G24KT 30/17 A2979 RMK A01 T03000173  RH  047%=      5-min Rain = 0
KSW1 241957Z 17018KT 30/17 A2979 RMK A01 T02990173  RH  047%=      5-min Rain = 0
KSW1 241958Z 16018G23KT 30/17 A2979 RMK A01 T02990173  RH  047%=      5-min Rain = 0
KSW1 241959Z 16018KT 30/17 A2979 RMK A01 T02970173  RH  047%=      5-min Rain = 0
KSW1 242000Z 17020G25KT 30/17 A2979 RMK A01 T02960171  RH  047%=      5-min Rain = 0
KSW1 242001Z 17015KT 30/17 A2979 RMK A01 T02970173  RH  047%=      5-min Rain = 0
KSW1 242002Z 16019G24KT 30/18 A2979 RMK A01 T03040175  RH  046%=      5-min Rain = 0
KSW1 242003Z 16018KT 31/18 A2979 RMK A01 T03060175  RH  045%=      5-min Rain = 0
KSW1 242004Z 17015KT 31/17 A2979 RMK A01 T03050174  RH  046%=      5-min Rain = 0
KSW1 242005Z 18016G21KT 30/17 A2978 RMK A01 T03040174  RH  046%=      5-min Rain = 0
KSW1 242006Z 18018KT 31/17 A2979 RMK A01 T03060171  RH  044%=      5-min Rain = 0
KSW1 242007Z 17017G23KT 31/17 A2979 RMK A01 T03060171  RH  045%=      5-min Rain = 0
KSW1 242008Z 17017KT 31/17 A2978 RMK A01 T03060172  RH  045%=      5-min Rain = 0
KSW1 242009Z 18022G27KT 31/17 A2978 RMK A01 T03060174  RH  045%=      5-min Rain = 0
KSW1 242010Z 17016KT 31/17 A2978 RMK A01 T03050174  RH  045%=      5-min Rain = 0
KSW1 242011Z 18014KT 31/17 A2978 RMK A01 T03060174  RH  045%=      5-min Rain = 0
KSW1 242012Z 19016KT 31/17 A2978 RMK A01 T03100173  RH  044%=      5-min Rain = 0
KSW1 242013Z 17015G20KT 31/18 A2978 RMK A01 T03130176  RH  044%=      5-min Rain = 0
KSW1 242014Z 17017KT 31/18 A2978 RMK A01 T03130175  RH  044%=      5-min Rain = 0
KSW1 242015Z 17017G22KT 31/18 A2978 RMK A01 T03090175  RH  045%=      5-min Rain = 0
KSW1 242016Z 18013G18KT 31/18 A2978 RMK A01 T03090175  RH  045%=      5-min Rain = 0
KSW1 242017Z 18018G23KT 31/18 A2978 RMK A01 T03110175  RH  044%=      5-min Rain = 0
KSW1 242018Z 17017G22KT 31/18 A2978 RMK A01 T03110175  RH  044%=      5-min Rain = 0
KSW1 242019Z 17021G28KT 31/17 A2977 RMK A01 T03110174  RH  044%=      5-min Rain = 0
KSW1 242020Z 18017KT 31/17 A2978 RMK A01 T03090173  RH  044%=      5-min Rain = 0
KSW1 242021Z 18020KT 31/17 A2977 RMK A01 T03080172  RH  044%=      5-min Rain = 0
KSW1 242022Z 19019G24KT 31/17 A2977 RMK A01 T03070172  RH  045%=      5-min Rain = 0
KSW1 242023Z 19019KT 31/17 A2977 RMK A01 T03070171  RH  044%=      5-min Rain = 0
KSW1 242024Z 20020KT 31/17 A2977 RMK A01 T03070170  RH  044%=      5-min Rain = 0
KSW1 242025Z 19015KT 31/17 A2977 RMK A01 T03080171  RH  044%=      5-min Rain = 0
KSW1 242026Z 19016KT 31/17 A2977 RMK A01 T03110173  RH  044%=      5-min Rain = 0
KSW1 242027Z 19016KT 31/17 A2977 RMK A01 T03110173  RH  044%=      5-min Rain = 0
KSW1 242028Z 19014KT 31/17 A2977 RMK A01 T03110172  RH  043%=      5-min Rain = 0
KSW1 242029Z 20016KT 31/17 A2977 RMK A01 T03130171  RH  043%=      5-min Rain = 0
KSW1 242030Z 21018KT 31/17 A2977 RMK A01 T03130170  RH  042%=      5-min Rain = 0
KSW1 242031Z 20016G21KT 31/17 A2977 RMK A01 T03120169  RH  042%=      5-min Rain = 0
KSW1 242032Z 18017G22KT 31/17 A2977 RMK A01 T03140170  RH  042%=      5-min Rain = 0
KSW1 242033Z 18015G20KT 32/17 A2977 RMK A01 T03160172  RH  042%=      5-min Rain = 0
KSW1 242034Z 19018G23KT 32/17 A2977 RMK A01 T03150170  RH  042%=      5-min Rain = 0
KSW1 242035Z 19022KT 31/17 A2976 RMK A01 T03080171  RH  044%=      5-min Rain = 0
KSW1 242036Z 18021KT 30/17 A2976 RMK A01 T03040171  RH  045%=      5-min Rain = 0
KSW1 242037Z 18017KT 31/17 A2976 RMK A01 T03060172  RH  045%=      5-min Rain = 0
KSW1 242038Z 19019G24KT 31/17 A2976 RMK A01 T03100171  RH  043%=      5-min Rain = 0
KSW1 242039Z 19018G25KT 31/17 A2976 RMK A01 T03100170  RH  043%=      5-min Rain = 0
KSW1 242040Z 18013KT 31/17 A2976 RMK A01 T03090171  RH  044%=      5-min Rain = 0
KSW1 242041Z 18017KT 31/17 A2976 RMK A01 T03100168  RH  043%=      5-min Rain = 0
KSW1 242042Z 18017KT 31/17 A2976 RMK A01 T03100169  RH  043%=      5-min Rain = 0
KSW1 242043Z 17012KT 31/17 A2976 RMK A01 T03110172  RH  044%=      5-min Rain = 0
KSW1 242044Z 16014KT 32/17 A2976 RMK A01 T03150172  RH  042%=      5-min Rain = 0
KSW1 242045Z 16015G21KT 32/17 A2976 RMK A01 T03160169  RH  041%=      5-min Rain = 0
KSW1 242046Z 18016KT 32/17 A2976 RMK A01 T03170172  RH  042%=      5-min Rain = 0
KSW1 242047Z 18019KT 32/17 A2976 RMK A01 T03190170  RH  041%=      5-min Rain = 0
KSW1 242048Z 19017KT 31/17 A2976 RMK A01 T03140169  RH  042%=      5-min Rain = 0
KSW1 242049Z 19013KT 31/17 A2976 RMK A01 T03100170  RH  043%=      5-min Rain = 0
KSW1 242050Z 19012KT 31/17 A2975 RMK A01 T03070169  RH  044%=      5-min Rain = 0
KSW1 242051Z 18014G20KT 31/17 A2975 RMK A01 T03070172  RH  044%=      5-min Rain = 0
KSW1 242052Z 17018KT 31/17 A2975 RMK A01 T03120168  RH  042%=      5-min Rain = 0
KSW1 242053Z 17014KT 31/17 A2975 RMK A01 T03110169  RH  043%=      5-min Rain = 0
KSW1 242054Z 18012KT 31/17 A2975 RMK A01 T03120169  RH  042%=      5-min Rain = 0
KSW1 242055Z 20013KT 31/17 A2975 RMK A01 T03120170  RH  043%=      5-min Rain = 0
KSW1 242056Z 18014KT 31/17 A2975 RMK A01 T03120171  RH  043%=      5-min Rain = 0
KSW1 242057Z 17016KT 31/17 A2975 RMK A01 T03130173  RH  043%=      5-min Rain = 0
KSW1 242058Z 17017KT 31/17 A2975 RMK A01 T03140172  RH  043%=      5-min Rain = 0
KSW1 242059Z 16016KT 31/17 A2975 RMK A01 T03120172  RH  043%=      5-min Rain = 0
KSW1 242100Z 17014KT 31/17 A2974 RMK A01 T03090171  RH  044%=      5-min Rain = 0
KSW1 242101Z 20013KT 31/17 A2974 RMK A01 T03090172  RH  044%=      5-min Rain = 0
KSW1 242102Z 19013KT 31/17 A2974 RMK A01 T03130173  RH  043%=      5-min Rain = 0
KSW1 242103Z 17016KT 32/17 A2974 RMK A01 T03160171  RH  042%=      5-min Rain = 0
KSW1 242104Z 19016KT 32/17 A2974 RMK A01 T03150170  RH  042%=      5-min Rain = 0
KSW1 242105Z 18015G20KT 31/17 A2974 RMK A01 T03110169  RH  043%=      5-min Rain = 0
KSW1 242106Z 17014G19KT 31/17 A2974 RMK A01 T03120171  RH  043%=      5-min Rain = 0
KSW1 242107Z 17016KT 31/17 A2974 RMK A01 T03130169  RH  042%=      5-min Rain = 0
KSW1 242108Z 18013KT 31/17 A2974 RMK A01 T03120169  RH  042%=      5-min Rain = 0
KSW1 242109Z 16012KT 31/17 A2974 RMK A01 T03110170  RH  043%=      5-min Rain = 0
KSW1 242110Z 17013KT 31/17 A2974 RMK A01 T03120172  RH  043%=      5-min Rain = 0
KSW1 242111Z 17013KT 31/17 A2974 RMK A01 T03140170  RH  042%=      5-min Rain = 0
KSW1 242112Z 17011KT 31/17 A2974 RMK A01 T03130169  RH  042%=      5-min Rain = 0
KSW1 242113Z 16012KT 31/17 A2974 RMK A01 T03130168  RH  042%=      5-min Rain = 0
KSW1 242114Z 17011G18KT 31/17 A2974 RMK A01 T03130168  RH  042%=      5-min Rain = 0
KSW1 242115Z 18014G20KT 31/17 A2973 RMK A01 T03140165  RH  041%=      5-min Rain = 0
KSW1 242116Z 17016KT 32/17 A2973 RMK A01 T03180166  RH  040%=      5-min Rain = 0
KSW1 242117Z 17014KT 32/17 A2973 RMK A01 T03180168  RH  041%=      5-min Rain = 0
KSW1 242118Z 17014KT 32/17 A2973 RMK A01 T03170166  RH  040%=      5-min Rain = 0
KSW1 242119Z 18011KT 31/17 A2973 RMK A01 T03140165  RH  041%=      5-min Rain = 0
KSW1 242120Z 19012KT 31/17 A2973 RMK A01 T03120165  RH  041%=      5-min Rain = 0
KSW1 242121Z 19012KT 31/16 A2973 RMK A01 T03120164  RH  041%=      5-min Rain = 0
KSW1 242122Z 18013KT 31/16 A2973 RMK A01 T03120161  RH  040%=      5-min Rain = 0
KSW1 242123Z 17011G16KT 31/16 A2973 RMK A01 T03130161  RH  040%=      5-min Rain = 0
KSW1 242124Z 17009KT 31/16 A2973 RMK A01 T03120163  RH  041%=      5-min Rain = 0
KSW1 242125Z 17011KT 31/16 A2972 RMK A01 T03120164  RH  041%=      5-min Rain = 0
KSW1 242126Z 17011KT 32/17 A2972 RMK A01 T03160165  RH  040%=      5-min Rain = 0
KSW1 242127Z 16014KT 32/17 A2972 RMK A01 T03180166  RH  040%=      5-min Rain = 0
KSW1 242128Z 15014KT 32/17 A2972 RMK A01 T03180165  RH  040%=      5-min Rain = 0
KSW1 242129Z 15012KT 32/17 A2972 RMK A01 T03170165  RH  040%=      5-min Rain = 0
KSW1 242130Z 15011KT 32/17 A2972 RMK A01 T03160165  RH  040%=      5-min Rain = 0
KSW1 242131Z 16009KT 32/17 A2972 RMK A01 T03160167  RH  041%=      5-min Rain = 0
KSW1 242132Z 17009KT 32/17 A2972 RMK A01 T03170166  RH  040%=      5-min Rain = 0
KSW1 242133Z 18012KT 32/17 A2972 RMK A01 T03190165  RH  040%=      5-min Rain = 0
KSW1 242134Z 18010KT 32/17 A2972 RMK A01 T03180165  RH  040%=      5-min Rain = 0
KSW1 242135Z 21011KT 32/16 A2972 RMK A01 T03180159  RH  038%=      5-min Rain = 0
KSW1 242136Z 19009KT 32/16 A2972 RMK A01 T03190156  RH  037%=      5-min Rain = 0
KSW1 242137Z 18010KT 32/16 A2972 RMK A01 T03200157  RH  037%=      5-min Rain = 0
KSW1 242138Z 18009KT 32/16 A2972 RMK A01 T03210159  RH  038%=      5-min Rain = 0
KSW1 242139Z 18012KT 32/16 A2972 RMK A01 T03190161  RH  038%=      5-min Rain = 0
KSW1 242140Z 18014KT 32/16 A2972 RMK A01 T03190161  RH  039%=      5-min Rain = 0
KSW1 242141Z 18015G20KT 32/16 A2972 RMK A01 T03190164  RH  039%=      5-min Rain = 0
KSW1 242142Z 17014KT 32/16 A2972 RMK A01 T03190164  RH  040%=      5-min Rain = 0
KSW1 242143Z 17013KT 32/16 A2972 RMK A01 T03170162  RH  039%=      5-min Rain = 0
KSW1 242144Z 18010KT 32/16 A2972 RMK A01 T03160158  RH  039%=      5-min Rain = 0
KSW1 242145Z 19009KT 32/16 A2972 RMK A01 T03160157  RH  039%=      5-min Rain = 0
KSW1 242146Z 18014KT 32/16 A2972 RMK A01 T03160157  RH  038%=      5-min Rain = 0
KSW1 242147Z 20012KT 32/16 A2972 RMK A01 T03190155  RH  037%=      5-min Rain = 0
KSW1 242148Z 19012KT 32/16 A2972 RMK A01 T03200156  RH  037%=      5-min Rain = 0
KSW1 242149Z 18011KT 32/16 A2972 RMK A01 T03210160  RH  038%=      5-min Rain = 0
KSW1 242150Z 17012G17KT 32/16 A2972 RMK A01 T03220162  RH  038%=      5-min Rain = 0
KSW1 242151Z 16014KT 32/16 A2972 RMK A01 T03220161  RH  038%=      5-min Rain = 0
KSW1 242152Z 18012KT 32/16 A2972 RMK A01 T03200161  RH  038%=      5-min Rain = 0
KSW1 242153Z 19012KT 32/16 A2973 RMK A01 T03190160  RH  038%=      5-min Rain = 0
KSW1 242154Z 18013KT 32/16 A2973 RMK A01 T03190160  RH  038%=      5-min Rain = 0
KSW1 242155Z 17017KT 32/16 A2973 RMK A01 T03200162  RH  039%=      5-min Rain = 0
KSW1 242156Z 17010KT 32/16 A2973 RMK A01 T03190164  RH  040%=      5-min Rain = 0
KSW1 242157Z 17011KT 32/17 A2973 RMK A01 T03190165  RH  040%=      5-min Rain = 0
KSW1 242158Z 18014KT 32/16 A2972 RMK A01 T03190164  RH  039%=      5-min Rain = 0
KSW1 242159Z 16013KT 32/17 A2972 RMK A01 T03180165  RH  040%=      5-min Rain = 0
KSW1 242200Z 15013KT 32/17 A2972 RMK A01 T03190168  RH  040%=      5-min Rain = 0
KSW1 242201Z 15014KT 32/17 A2972 RMK A01 T03220170  RH  040%=      5-min Rain = 0
KSW1 242202Z 15016KT 32/17 A2972 RMK A01 T03230169  RH  040%=      5-min Rain = 0
KSW1 242203Z 16015KT 32/17 A2972 RMK A01 T03220166  RH  039%=      5-min Rain = 0
KSW1 242204Z 18012KT 32/16 A2972 RMK A01 T03200164  RH  039%=      5-min Rain = 0
KSW1 242205Z 18011KT 32/16 A2972 RMK A01 T03200161  RH  038%=      5-min Rain = 0
KSW1 242206Z 18009KT 32/16 A2972 RMK A01 T03210163  RH  039%=      5-min Rain = 0
KSW1 242207Z 20014KT 32/16 A2972 RMK A01 T03240163  RH  038%=      5-min Rain = 0
KSW1 242208Z 20016KT 33/16 A2971 RMK A01 T03250162  RH  038%=      5-min Rain = 0
KSW1 242209Z 20015KT 32/16 A2971 RMK A01 T03220159  RH  038%=      5-min Rain = 0
KSW1 242210Z 19014KT 32/16 A2971 RMK A01 T03190159  RH  038%=      5-min Rain = 0
KSW1 242211Z 19014KT 32/16 A2971 RMK A01 T03180158  RH  038%=      5-min Rain = 0
KSW1 242212Z 19011KT 32/16 A2971 RMK A01 T03190157  RH  038%=      5-min Rain = 0
KSW1 242213Z 18011KT 32/16 A2971 RMK A01 T03200157  RH  037%=      5-min Rain = 0
KSW1 242214Z 18012KT 32/16 A2971 RMK A01 T03210157  RH  037%=      5-min Rain = 0
KSW1 242215Z 17012KT 32/16 A2971 RMK A01 T03220160  RH  038%=      5-min Rain = 0
KSW1 242216Z 17012KT 32/16 A2971 RMK A01 T03230161  RH  038%=      5-min Rain = 0
KSW1 242217Z 16015KT 32/17 A2971 RMK A01 T03230166  RH  039%=      5-min Rain = 0
KSW1 242218Z 17012KT 32/17 A2971 RMK A01 T03210167  RH  040%=      5-min Rain = 0
KSW1 242219Z 15013KT 32/17 A2971 RMK A01 T03200169  RH  040%=      5-min Rain = 0
KSW1 242220Z 15012KT 32/17 A2971 RMK A01 T03220168  RH  040%=      5-min Rain = 0
KSW1 242221Z 15014KT 32/17 A2971 RMK A01 T03230167  RH  039%=      5-min Rain = 0
KSW1 242222Z 15013KT 32/17 A2971 RMK A01 T03200165  RH  040%=      5-min Rain = 0
KSW1 242223Z 15009KT 32/17 A2971 RMK A01 T03170166  RH  040%=      5-min Rain = 0
KSW1 242224Z 16009KT 32/17 A2971 RMK A01 T03170167  RH  041%=      5-min Rain = 0
KSW1 242225Z 18011KT 32/17 A2971 RMK A01 T03170166  RH  040%=      5-min Rain = 0
KSW1 242226Z 19012KT 32/16 A2971 RMK A01 T03170161  RH  039%=      5-min Rain = 0
KSW1 242227Z 17011KT 32/16 A2971 RMK A01 T03160158  RH  038%=      5-min Rain = 0
KSW1 242228Z 18011KT 32/16 A2971 RMK A01 T03150159  RH  039%=      5-min Rain = 0
KSW1 242229Z 18015KT 31/16 A2971 RMK A01 T03140159  RH  039%=      5-min Rain = 0
KSW1 242230Z 17016KT 31/16 A2971 RMK A01 T03120159  RH  040%=      5-min Rain = 0
KSW1 242231Z 17014KT 31/16 A2971 RMK A01 T03090160  RH  040%=      5-min Rain = 0
KSW1 242232Z 17014KT 31/16 A2971 RMK A01 T03080157  RH  040%=      5-min Rain = 0
KSW1 242233Z 16014KT 31/16 A2971 RMK A01 T03070160  RH  041%=      5-min Rain = 0
KSW1 242234Z 16011KT 31/16 A2971 RMK A01 T03060162  RH  042%=      5-min Rain = 0
KSW1 242235Z 16011KT 31/16 A2971 RMK A01 T03060164  RH  042%=      5-min Rain = 0
KSW1 242236Z 15011KT 31/17 A2971 RMK A01 T03070165  RH  042%=      5-min Rain = 0
KSW1 242237Z 16010KT 31/17 A2971 RMK A01 T03070166  RH  042%=      5-min Rain = 0
KSW1 242238Z 16015KT 31/17 A2971 RMK A01 T03080166  RH  042%=      5-min Rain = 0
KSW1 242239Z 15012KT 31/16 A2971 RMK A01 T03080164  RH  042%=      5-min Rain = 0
KSW1 242240Z 15014KT 31/16 A2971 RMK A01 T03070164  RH  042%=      5-min Rain = 0
KSW1 242241Z 15014KT 31/16 A2971 RMK A01 T03060162  RH  042%=      5-min Rain = 0
KSW1 242242Z 16013KT 31/16 A2971 RMK A01 T03050161  RH  042%=      5-min Rain = 0
KSW1 242243Z 16013KT 31/16 A2971 RMK A01 T03050163  RH  042%=      5-min Rain = 0
KSW1 242244Z 14013KT 30/16 A2971 RMK A01 T03040162  RH  042%=      5-min Rain = 0
KSW1 242245Z 15015G21KT 30/16 A2971 RMK A01 T03040163  RH  043%=      5-min Rain = 0
KSW1 242246Z 16019G25KT 30/16 A297 RMK A01 T03040162  RH  042%=      5-min Rain = 0
KSW1 242247Z 16015KT 30/16 A297 RMK A01 T03040163  RH  043%=      5-min Rain = 0
KSW1 242248Z 17012KT 30/16 A297 RMK A01 T03040164  RH  043%=      5-min Rain = 0
KSW1 242249Z 17011KT 30/16 A297 RMK A01 T03040164  RH  043%=      5-min Rain = 0
KSW1 242250Z 17011KT 30/16 A297 RMK A01 T03040164  RH  043%=      5-min Rain = 0
KSW1 242251Z 18009KT 31/16 A2971 RMK A01 T03050164  RH  043%=      5-min Rain = 0
KSW1 242252Z 18010G15KT 31/17 A2971 RMK A01 T03070166  RH  043%=      5-min Rain = 0
KSW1 242253Z 17010KT 31/17 A297 RMK A01 T03080165  RH  042%=      5-min Rain = 0
KSW1 242254Z 15011KT 31/17 A2971 RMK A01 T03090167  RH  042%=      5-min Rain = 0
KSW1 242255Z 16010KT 31/17 A297 RMK A01 T03090167  RH  043%=      5-min Rain = 0
KSW1 242256Z 17011KT 31/17 A297 RMK A01 T03090168  RH  043%=      5-min Rain = 0
KSW1 242257Z 18011KT 31/17 A297 RMK A01 T03090167  RH  043%=      5-min Rain = 0
KSW1 242258Z 18010KT 31/17 A297 RMK A01 T03080166  RH  042%=      5-min Rain = 0
KSW1 242259Z 18014KT 31/17 A297 RMK A01 T03080167  RH  043%=      5-min Rain = 0
KSW1 242300Z 17015KT 31/17 A297 RMK A01 T03080165  RH  042%=      5-min Rain = 0
KSW1 242301Z 17015KT 31/17 A2969 RMK A01 T03070166  RH  043%=      5-min Rain = 0
KSW1 242302Z 16016KT 31/17 A2969 RMK A01 T03060166  RH  043%=      5-min Rain = 0
KSW1 242303Z 15016KT 30/16 A2969 RMK A01 T03040164  RH  043%=      5-min Rain = 0
KSW1 242304Z 15014KT 30/16 A297 RMK A01 T03040163  RH  043%=      5-min Rain = 0
KSW1 242305Z 16014KT 30/16 A297 RMK A01 T03030164  RH  043%=      5-min Rain = 0
KSW1 242306Z 17013KT 30/17 A297 RMK A01 T03030165  RH  043%=      5-min Rain = 0
KSW1 242307Z 17015KT 30/17 A297 RMK A01 T03040167  RH  044%=      5-min Rain = 0
KSW1 242308Z 18016KT 30/17 A297 RMK A01 T03030168  RH  044%=      5-min Rain = 0
KSW1 242309Z 17017KT 30/17 A297 RMK A01 T03030168  RH  044%=      5-min Rain = 0
KSW1 242310Z 17018KT 30/17 A297 RMK A01 T03020167  RH  044%=      5-min Rain = 0
KSW1 242311Z 17015KT 30/17 A297 RMK A01 T03010167  RH  044%=      5-min Rain = 0
KSW1 242312Z 18014G19KT 30/17 A297 RMK A01 T03010167  RH  045%=      5-min Rain = 0
KSW1 242313Z 19015KT 30/17 A297 RMK A01 T03010167  RH  045%=      5-min Rain = 0
KSW1 242314Z 18012KT 30/17 A297 RMK A01 T03010167  RH  045%=      5-min Rain = 0
KSW1 242315Z 18015KT 30/17 A297 RMK A01 T03010168  RH  045%=      5-min Rain = 0
KSW1 242316Z 18015KT 30/17 A297 RMK A01 T03010168  RH  045%=      5-min Rain = 0
KSW1 242317Z 18014KT 30/17 A297 RMK A01 T03010168  RH  045%=      5-min Rain = 0
KSW1 242318Z 18014KT 30/17 A297 RMK A01 T03000168  RH  045%=      5-min Rain = 0
KSW1 242319Z 17018KT 30/17 A297 RMK A01 T02990167  RH  045%=      5-min Rain = 0
KSW1 242320Z 16016KT 30/17 A297 RMK A01 T02980166  RH  045%=      5-min Rain = 0
KSW1 242321Z 17012G17KT 30/17 A297 RMK A01 T02980166  RH  045%=      5-min Rain = 0
KSW1 242322Z 18015G21KT 30/17 A297 RMK A01 T02980166  RH  045%=      5-min Rain = 0
KSW1 242323Z 18015KT 30/17 A297 RMK A01 T02980166  RH  045%=      5-min Rain = 0
KSW1 242324Z 18016G21KT 30/17 A297 RMK A01 T02980167  RH  045%=      5-min Rain = 0
KSW1 242325Z 18017KT 30/17 A297 RMK A01 T02980167  RH  045%=      5-min Rain = 0
KSW1 242326Z 18017KT 30/17 A297 RMK A01 T02970167  RH  045%=      5-min Rain = 0
KSW1 242327Z 18014KT 30/17 A2969 RMK A01 T02970167  RH  046%=      5-min Rain = 0
KSW1 242328Z 18011KT 30/17 A2969 RMK A01 T02970168  RH  046%=      5-min Rain = 0
KSW1 242329Z 18014G19KT 30/17 A2969 RMK A01 T02970168  RH  046%=      5-min Rain = 0
KSW1 242330Z 17014KT 30/17 A2969 RMK A01 T02960167  RH  046%=      5-min Rain = 0
KSW1 242331Z 17015KT 30/17 A2969 RMK A01 T02960167  RH  046%=      5-min Rain = 0
KSW1 242332Z 17016KT 30/17 A2969 RMK A01 T02960167  RH  046%=      5-min Rain = 0
KSW1 242333Z 17016KT 30/17 A2969 RMK A01 T02950166  RH  046%=      5-min Rain = 0
KSW1 242334Z 18015G20KT 29/17 A2969 RMK A01 T02940166  RH  046%=      5-min Rain = 0
KSW1 242335Z 17013KT 29/17 A2968 RMK A01 T02940167  RH  046%=      5-min Rain = 0
KSW1 242336Z 17017KT 29/17 A2968 RMK A01 T02940167  RH  046%=      5-min Rain = 0
KSW1 242337Z 17015KT 29/17 A2968 RMK A01 T02940167  RH  046%=      5-min Rain = 0
KSW1 242338Z 17016G21KT 29/17 A2968 RMK A01 T02930167  RH  046%=      5-min Rain = 0
KSW1 242339Z 16018KT 29/17 A2968 RMK A01 T02930167  RH  047%=      5-min Rain = 0
KSW1 242340Z 16016KT 29/17 A2968 RMK A01 T02930168  RH  047%=      5-min Rain = 0
KSW1 242341Z 16016G21KT 29/17 A2968 RMK A01 T02920168  RH  047%=      5-min Rain = 0
KSW1 242342Z 16015G20KT 29/17 A2968 RMK A01 T02920168  RH  047%=      5-min Rain = 0
KSW1 242343Z 16015KT 29/17 A2968 RMK A01 T02910168  RH  047%=      5-min Rain = 0
KSW1 242344Z 16017KT 29/17 A2968 RMK A01 T02910168  RH  047%=      5-min Rain = 0
KSW1 242345Z 16015KT 29/17 A2968 RMK A01 T02910168  RH  047%=      5-min Rain = 0
KSW1 242346Z 16016KT 29/17 A2968 RMK A01 T02910169  RH  048%=      5-min Rain = 0
KSW1 242347Z 16012KT 29/17 A2968 RMK A01 T02910169  RH  048%=      5-min Rain = 0
KSW1 242348Z 16017G22KT 29/17 A2968 RMK A01 T02900169  RH  048%=      5-min Rain = 0
KSW1 242349Z 16017KT 29/17 A2968 RMK A01 T02900169  RH  048%=      5-min Rain = 0
KSW1 242350Z 17015G21KT 29/17 A2968 RMK A01 T02900169  RH  048%=      5-min Rain = 0
KSW1 242351Z 17016G21KT 29/17 A2968 RMK A01 T02900169  RH  048%=      5-min Rain = 0
KSW1 242352Z 16014KT 29/17 A2968 RMK A01 T02890169  RH  048%=      5-min Rain = 0
KSW1 242353Z 16013G20KT 29/17 A2968 RMK A01 T02890170  RH  048%=      5-min Rain = 0
KSW1 242354Z 17019G24KT 29/17 A2968 RMK A01 T02890169  RH  049%=      5-min Rain = 0
KSW1 242355Z 16018G23KT 29/17 A2968 RMK A01 T02880169  RH  049%=      5-min Rain = 0
KSW1 242356Z 16015KT 29/17 A2968 RMK A01 T02880169  RH  049%=      5-min Rain = 0
KSW1 242357Z 16014KT 29/17 A2968 RMK A01 T02870169  RH  049%=      5-min Rain = 0
KSW1 242358Z 16012KT 29/17 A2968 RMK A01 T02870170  RH  049%=      5-min Rain = 0
KSW1 242359Z 16010KT 29/17 A2968 RMK A01 T02860171  RH  050%=      5-min Rain = 0
KSW1 250000Z 15009KT 29/17 A2968 RMK A01 T02850173  RH  051%=      5-min Rain = 0
KSW1 250001Z 15011KT 28/18 A2968 RMK A01 T02820178  RH  053%=      5-min Rain = 0
KSW1 250002Z 14009KT 28/18 A2968 RMK A01 T02770178  RH  055%=      5-min Rain = 0
KSW1 250003Z 14011KT 27/18 A2968 RMK A01 T02740179  RH  056%=      5-min Rain = 0
KSW1 250004Z 14010KT 27/18 A2968 RMK A01 T02710180  RH  057%=      5-min Rain = 0
KSW1 250005Z 14008KT 27/18 A2968 RMK A01 T02690181  RH  059%=      5-min Rain = 0
KSW1 250006Z 14008KT 27/18 A2968 RMK A01 T02670182  RH  059%=      5-min Rain = 0
KSW1 250007Z 14010KT 27/18 A2968 RMK A01 T02660182  RH  060%=      5-min Rain = 0
KSW1 250008Z 14010KT 27/18 A2968 RMK A01 T02650181  RH  060%=      5-min Rain = 0
KSW1 250009Z 15009KT 26/18 A2968 RMK A01 T02640181  RH  060%=      5-min Rain = 0
KSW1 250010Z 15009KT 26/18 A2968 RMK A01 T02640181  RH  060%=      5-min Rain = 0
KSW1 250011Z 16010KT 26/18 A2968 RMK A01 T02640181  RH  060%=      5-min Rain = 0
KSW1 250012Z 17011KT 27/18 A2968 RMK A01 T02650179  RH  059%=      5-min Rain = 0
KSW1 250013Z 17012KT 27/18 A2968 RMK A01 T02660177  RH  058%=      5-min Rain = 0
KSW1 250014Z 16012G18KT 27/18 A2968 RMK A01 T02690176  RH  057%=      5-min Rain = 0
KSW1 250015Z 16013KT 27/17 A2968 RMK A01 T02710173  RH  055%=      5-min Rain = 0
KSW1 250016Z 16011KT 27/17 A2968 RMK A01 T02740173  RH  054%=      5-min Rain = 0
KSW1 250017Z 16015KT 28/17 A2968 RMK A01 T02760172  RH  053%=      5-min Rain = 0
KSW1 250018Z 17014KT 28/17 A2968 RMK A01 T02770172  RH  053%=      5-min Rain = 0
KSW1 250019Z 17015KT 28/17 A2968 RMK A01 T02780172  RH  052%=      5-min Rain = 0
KSW1 250020Z 17012KT 28/17 A2968 RMK A01 T02780172  RH  052%=      5-min Rain = 0
KSW1 250021Z 16012KT 28/17 A2968 RMK A01 T02790172  RH  052%=      5-min Rain = 0
KSW1 250022Z 16013KT 28/17 A2969 RMK A01 T02780172  RH  052%=      5-min Rain = 0
KSW1 250023Z 18012KT 28/17 A2969 RMK A01 T02780173  RH  053%=      5-min Rain = 0
KSW1 250024Z 20017G22KT 28/17 A297 RMK A01 T02780173  RH  053%=      5-min Rain = 0
KSW1 250025Z 20024G34KT 28/16 A297 RMK A01 T02780162  RH  050%=      5-min Rain = 0
KSW1 250026Z 20028G34KT 27/14 A297 RMK A01 T02660144  RH  047%=      5-min Rain = 0
KSW1 250027Z 19024G29KT 26/14 A297 RMK A01 T02550141  RH  049%=      5-min Rain = 0
KSW1 250028Z 20025G31KT 25/14 A2971 RMK A01 T02510140  RH  050%=      5-min Rain = 0
KSW1 250029Z 20026G35KT 25/14 A2971 RMK A01 T02450137  RH  051%=      5-min Rain = 0
KSW1 250030Z 20024G29KT 24/14 A2971 RMK A01 T02400136  RH  052%=      5-min Rain = 0
KSW1 250031Z 20024G29KT 24/14 A2971 RMK A01 T02370136  RH  053%=      5-min Rain = 0
KSW1 250032Z 21024G31KT 23/14 A2972 RMK A01 T02340136  RH  054%=      5-min Rain = 0
KSW1 250033Z 20026G33KT 23/14 A2972 RMK A01 T02320137  RH  055%=      5-min Rain = 0
KSW1 250034Z 20027G34KT 23/14 A2972 RMK A01 T02270137  RH  057%=      5-min Rain = 0
KSW1 250035Z 21025G32KT 22/14 A2972 RMK A01 T02230137  RH  058%=      5-min Rain = 0
KSW1 250036Z 20026G34KT 22/14 A2972 RMK A01 T02200138  RH  059%=      5-min Rain = 0
KSW1 250037Z 19019G28KT 22/14 A2972 RMK A01 T02190138  RH  060%=      5-min Rain = 0
KSW1 250038Z 19019G26KT 22/14 A2972 RMK A01 T02170137  RH  060%=      5-min Rain = 0
KSW1 250039Z 19021G27KT 22/14 A2972 RMK A01 T02170137  RH  060%=      5-min Rain = 0
KSW1 250040Z 20025G32KT 22/14 A2972 RMK A01 T02170135  RH  060%=      5-min Rain = 0
KSW1 250041Z 20023G29KT 22/13 A2972 RMK A01 T02160134  RH  060%=      5-min Rain = 0
KSW1 250042Z 21026G31KT 21/14 A2972 RMK A01 T02140137  RH  061%=      5-min Rain = 0
KSW1 250043Z 21026G31KT 21/14 A2972 RMK A01 T02120139  RH  063%=      5-min Rain = 0
KSW1 250044Z 21022G27KT 21/14 A2972 RMK A01 T02080142  RH  066%=      5-min Rain = 0
KSW1 250045Z 21027G37KT 21/14 A2972 RMK A01 T02050142  RH  067%=      5-min Rain = 0
KSW1 250046Z 21025G31KT 20/14 A2972 RMK A01 T02020136  RH  065%=      5-min Rain = 0
KSW1 250047Z 21028G33KT 20/14 A2971 RMK A01 T01990136  RH  067%=      5-min Rain = 0
KSW1 250048Z 21024G35KT 20/14 A2971 RMK A01 T01950137  RH  069%=      5-min Rain = 0.01
KSW1 250049Z 22025KT 19/14 A2971 RMK A01 T01910136  RH  070%=      5-min Rain = 0.01
KSW1 250050Z 21027G36KT 19/14 A297 RMK A01 T01870135  RH  072%=      5-min Rain = 0.02
KSW1 250051Z 22026G32KT 19/13 A297 RMK A01 T01850132  RH  071%=      5-min Rain = 0.02
KSW1 250052Z 21024G30KT 18/14 A297 RMK A01 T01840137  RH  074%=      5-min Rain = 0.02
KSW1 250053Z 21025G31KT 18/14 A2969 RMK A01 T01820136  RH  074%=      5-min Rain = 0.02
KSW1 250054Z 21022KT 18/14 A297 RMK A01 T01810141  RH  077%=      5-min Rain = 0.02
KSW1 250055Z 22021G26KT 18/14 A297 RMK A01 T01780136  RH  076%=      5-min Rain = 0.01
KSW1 250056Z 22022KT 18/13 A297 RMK A01 T01780133  RH  075%=      5-min Rain = 0.02
KSW1 250057Z 22025G33KT 18/13 A297 RMK A01 T01810127  RH  071%=      5-min Rain = 0.01
KSW1 250058Z 22024G31KT 19/13 A297 RMK A01 T01860125  RH  068%=      5-min Rain = 0.01
KSW1 250059Z 22024G30KT 19/13 A297 RMK A01 T01880127  RH  068%=      5-min Rain = 0.01
KSW1 250100Z 22021G26KT 19/13 A297 RMK A01 T01870129  RH  069%=      5-min Rain = 0
KSW1 250101Z 22026KT 19/12 A2969 RMK A01 T01860124  RH  067%=      5-min Rain = 0
KSW1 250102Z 22022G29KT 19/13 A297 RMK A01 T01890125  RH  067%=      5-min Rain = 0
KSW1 250103Z 22019G24KT 19/13 A297 RMK A01 T01890128  RH  067%=      5-min Rain = 0
KSW1 250104Z 21021G26KT 19/13 A297 RMK A01 T01890127  RH  067%=      5-min Rain = 0
KSW1 250105Z 21019G24KT 19/13 A297 RMK A01 T01890130  RH  069%=      5-min Rain = 0
KSW1 250106Z 20021KT 19/13 A297 RMK A01 T01880131  RH  069%=      5-min Rain = 0
KSW1 250107Z 20018KT 19/13 A2971 RMK A01 T01880133  RH  070%=      5-min Rain = 0
KSW1 250108Z 19017KT 19/14 A2971 RMK A01 T01880135  RH  071%=      5-min Rain = 0
KSW1 250109Z 19018G24KT 19/14 A2971 RMK A01 T01860139  RH  074%=      5-min Rain = 0
KSW1 250110Z 19019G25KT 19/14 A2971 RMK A01 T01850141  RH  075%=      5-min Rain = 0
KSW1 250111Z 19021G27KT 18/14 A2971 RMK A01 T01840143  RH  077%=      5-min Rain = 0
KSW1 250112Z 18021KT 18/15 A2971 RMK A01 T01830145  RH  078%=      5-min Rain = 0
KSW1 250113Z 19021KT 18/14 A2971 RMK A01 T01820144  RH  079%=      5-min Rain = 0
KSW1 250114Z 19017KT 18/15 A2971 RMK A01 T01820145  RH  079%=      5-min Rain = 0
KSW1 250115Z 19018G26KT 18/15 A2971 RMK A01 T01820146  RH  079%=      5-min Rain = 0
KSW1 250116Z 20022G28KT 18/14 A2971 RMK A01 T01820141  RH  077%=      5-min Rain = 0
KSW1 250117Z 20020G26KT 18/14 A2971 RMK A01 T01830137  RH  074%=      5-min Rain = 0
KSW1 250118Z 20019G24KT 18/14 A2971 RMK A01 T01840136  RH  074%=      5-min Rain = 0
KSW1 250119Z 20022G28KT 18/14 A2971 RMK A01 T01840138  RH  074%=      5-min Rain = 0
KSW1 250120Z 19021G26KT 18/14 A2971 RMK A01 T01840137  RH  074%=      5-min Rain = 0.01
KSW1 250121Z 19022G27KT 18/14 A2971 RMK A01 T01840137  RH  074%=      5-min Rain = 0
KSW1 250122Z 19022KT 18/14 A2971 RMK A01 T01830138  RH  075%=      5-min Rain = 0
KSW1 250123Z 19019G24KT 18/14 A2971 RMK A01 T01820140  RH  076%=      5-min Rain = 0
KSW1 250124Z 20021G29KT 18/14 A2971 RMK A01 T01800141  RH  078%=      5-min Rain = 0
KSW1 250125Z 19025KT 18/14 A2971 RMK A01 T01790140  RH  078%=      5-min Rain = 0
KSW1 250126Z 19022KT 18/14 A2971 RMK A01 T01780141  RH  079%=      5-min Rain = 0
KSW1 250127Z 19025G30KT 18/14 A2971 RMK A01 T01780141  RH  079%=      5-min Rain = 0
KSW1 250128Z 19027KT 18/14 A2971 RMK A01 T01780138  RH  077%=      5-min Rain = 0
KSW1 250129Z 19023G32KT 18/14 A2971 RMK A01 T01790139  RH  078%=      5-min Rain = 0
KSW1 250130Z 19023G29KT 18/14 A297 RMK A01 T01790141  RH  079%=      5-min Rain = 0
KSW1 250131Z 19026G33KT 18/14 A297 RMK A01 T01780140  RH  079%=      5-min Rain = 0
KSW1 250132Z 20025G30KT 18/14 A297 RMK A01 T01780139  RH  078%=      5-min Rain = 0
KSW1 250133Z 20026KT 18/14 A297 RMK A01 T01780136  RH  077%=      5-min Rain = 0
KSW1 250134Z 19026G31KT 18/14 A2971 RMK A01 T01780137  RH  077%=      5-min Rain = 0
KSW1 250135Z 20026G32KT 18/14 A2971 RMK A01 T01780138  RH  077%=      5-min Rain = 0
KSW1 250136Z 19025G30KT 18/14 A2971 RMK A01 T01780139  RH  078%=      5-min Rain = 0
KSW1 250137Z 20024G29KT 18/14 A2971 RMK A01 T01780138  RH  078%=      5-min Rain = 0
KSW1 250138Z 20025G31KT 18/14 A2971 RMK A01 T01770137  RH  077%=      5-min Rain = 0
KSW1 250139Z 19024KT 18/14 A2971 RMK A01 T01780137  RH  077%=      5-min Rain = 0.01
KSW1 250140Z 20026G32KT 18/14 A2971 RMK A01 T01780137  RH  077%=      5-min Rain = 0
KSW1 250141Z 20025G31KT 18/14 A2972 RMK A01 T01780136  RH  076%=      5-min Rain = 0
KSW1 250142Z 20023KT 18/14 A2972 RMK A01 T01790138  RH  077%=      5-min Rain = 0
KSW1 250143Z 20022KT 18/14 A2972 RMK A01 T01780138  RH  077%=      5-min Rain = 0
KSW1 250144Z 20020G26KT 18/14 A2972 RMK A01 T01780138  RH  078%=      5-min Rain = 0
KSW1 250145Z 20021KT 18/14 A2972 RMK A01 T01770139  RH  079%=      5-min Rain = 0
KSW1 250146Z 21022G27KT 18/14 A2972 RMK A01 T01760138  RH  078%=      5-min Rain = 0
KSW1 250147Z 20022G27KT 18/14 A2972 RMK A01 T01760139  RH  079%=      5-min Rain = 0
KSW1 250148Z 20022KT 18/14 A2972 RMK A01 T01760138  RH  079%=      5-min Rain = 0
KSW1 250149Z 20022G28KT 18/14 A2972 RMK A01 T01760138  RH  078%=      5-min Rain = 0
KSW1 250150Z 21022G28KT 18/14 A2972 RMK A01 T01760139  RH  079%=      5-min Rain = 0
KSW1 250151Z 20021KT 18/14 A2972 RMK A01 T01750139  RH  079%=      5-min Rain = 0.01
KSW1 250152Z 20020KT 17/14 A2972 RMK A01 T01740140  RH  080%=      5-min Rain = 0
KSW1 250153Z 20022G27KT 17/14 A2972 RMK A01 T01740138  RH  079%=      5-min Rain = 0
KSW1 250154Z 21019G25KT 18/14 A2972 RMK A01 T01750137  RH  079%=      5-min Rain = 0
KSW1 250155Z 21021G26KT 18/14 A2972 RMK A01 T01750137  RH  078%=      5-min Rain = 0
KSW1 250156Z 20019KT 18/14 A2972 RMK A01 T01750137  RH  078%=      5-min Rain = 0
KSW1 250157Z 20018G27KT 18/14 A2972 RMK A01 T01750139  RH  079%=      5-min Rain = 0
KSW1 250158Z 20019KT 18/14 A2972 RMK A01 T01750137  RH  078%=      5-min Rain = 0
KSW1 250159Z 20019KT 18/14 A2972 RMK A01 T01750136  RH  078%=      5-min Rain = 0
KSW1 250200Z 20019G25KT 18/14 A2972 RMK A01 T01760137  RH  078%=      5-min Rain = 0.01
KSW1 250201Z 20015G20KT 18/14 A2972 RMK A01 T01750140  RH  080%=      5-min Rain = 0
KSW1 250202Z 19015KT 17/14 A2972 RMK A01 T01740140  RH  081%=      5-min Rain = 0
KSW1 250203Z 20017KT 17/14 A2972 RMK A01 T01730140  RH  081%=      5-min Rain = 0
KSW1 250204Z 20016KT 17/14 A2972 RMK A01 T01730139  RH  080%=      5-min Rain = 0
KSW1 250205Z 20014KT 17/14 A2972 RMK A01 T01720140  RH  082%=      5-min Rain = 0
KSW1 250206Z 20013KT 17/14 A2972 RMK A01 T01710140  RH  082%=      5-min Rain = 0
KSW1 250207Z 20011KT 17/14 A2972 RMK A01 T01710142  RH  083%=      5-min Rain = 0
KSW1 250208Z 20015KT 17/14 A2972 RMK A01 T01700142  RH  083%=      5-min Rain = 0
KSW1 250209Z 20013G18KT 17/14 A2972 RMK A01 T01700140  RH  082%=      5-min Rain = 0
KSW1 250210Z 20012KT 17/14 A2972 RMK A01 T01700141  RH  083%=      5-min Rain = 0
KSW1 250211Z 20013KT 17/14 A2972 RMK A01 T01700142  RH  083%=      5-min Rain = 0
KSW1 250212Z 20014KT 17/14 A2972 RMK A01 T01700141  RH  083%=      5-min Rain = 0
KSW1 250213Z 20012KT 17/14 A2972 RMK A01 T01690140  RH  083%=      5-min Rain = 0
KSW1 250214Z 20012KT 17/14 A2972 RMK A01 T01700141  RH  083%=      5-min Rain = 0.01
KSW1 250215Z 20008KT 17/14 A2972 RMK A01 T01690142  RH  084%=      5-min Rain = 0
KSW1 250216Z 20009KT 17/14 A2972 RMK A01 T01690144  RH  085%=      5-min Rain = 0
KSW1 250217Z 20008KT 17/14 A2971 RMK A01 T01680142  RH  085%=      5-min Rain = 0
KSW1 250218Z 20008KT 17/14 A2971 RMK A01 T01680142  RH  085%=      5-min Rain = 0
KSW1 250219Z 20008KT 17/14 A2971 RMK A01 T01680141  RH  084%=      5-min Rain = 0
KSW1 250220Z 20007KT 17/14 A2971 RMK A01 T01680143  RH  085%=      5-min Rain = 0
KSW1 250221Z 20007KT 17/14 A2971 RMK A01 T01680142  RH  085%=      5-min Rain = 0
KSW1 250222Z 20007KT 17/14 A2971 RMK A01 T01680140  RH  084%=      5-min Rain = 0
KSW1 250223Z 20006KT 17/14 A2971 RMK A01 T01680140  RH  084%=      5-min Rain = 0
KSW1 250224Z 20006KT 17/14 A2971 RMK A01 T01680142  RH  085%=      5-min Rain = 0
KSW1 250225Z 20005KT 17/14 A2971 RMK A01 T01680141  RH  084%=      5-min Rain = 0
KSW1 250226Z 20003KT 17/14 A2971 RMK A01 T01680143  RH  085%=      5-min Rain = 0
KSW1 250227Z 20004KT 17/14 A2971 RMK A01 T01680143  RH  085%=      5-min Rain = 0
KSW1 250228Z 19005KT 17/14 A2971 RMK A01 T01680140  RH  083%=      5-min Rain = 0
KSW1 250229Z 19003KT 17/14 A2971 RMK A01 T01680140  RH  083%=      5-min Rain = 0
KSW1 250230Z 19004KT 17/14 A2971 RMK A01 T01690141  RH  084%=      5-min Rain = 0
KSW1 250231Z 18004KT 17/14 A2971 RMK A01 T01690140  RH  083%=      5-min Rain = 0
KSW1 250232Z 16002KT 17/14 A2971 RMK A01 T01690142  RH  084%=      5-min Rain = 0
KSW1 250233Z 16003KT 17/14 A2971 RMK A01 T01690144  RH  085%=      5-min Rain = 0
KSW1 250234Z 16003KT 17/14 A2971 RMK A01 T01690144  RH  085%=      5-min Rain = 0
KSW1 250235Z 16004KT 17/15 A2971 RMK A01 T01680145  RH  086%=      5-min Rain = 0.01
KSW1 250236Z 17004KT 17/14 A2971 RMK A01 T01680144  RH  086%=      5-min Rain = 0
KSW1 250237Z 17003KT 17/14 A2971 RMK A01 T01670144  RH  086%=      5-min Rain = 0
KSW1 250238Z 17004KT 17/15 A2971 RMK A01 T01670145  RH  086%=      5-min Rain = 0
KSW1 250239Z 17003KT 17/15 A2971 RMK A01 T01670145  RH  087%=      5-min Rain = 0
KSW1 250240Z 16003KT 17/15 A2971 RMK A01 T01680145  RH  086%=      5-min Rain = 0
KSW1 250241Z 14003KT 17/14 A2971 RMK A01 T01680142  RH  085%=      5-min Rain = 0
KSW1 250242Z 13004KT 17/14 A2972 RMK A01 T01680143  RH  085%=      5-min Rain = 0
KSW1 250243Z 12004KT 17/15 A2972 RMK A01 T01680145  RH  086%=      5-min Rain = 0
KSW1 250244Z 11005KT 17/15 A2972 RMK A01 T01680148  RH  088%=      5-min Rain = 0
KSW1 250245Z 10005KT 17/15 A2972 RMK A01 T01680148  RH  088%=      5-min Rain = 0
KSW1 250246Z 10005KT 17/15 A2972 RMK A01 T01680148  RH  088%=      5-min Rain = 0
KSW1 250247Z 11005KT 17/15 A2972 RMK A01 T01670146  RH  087%=      5-min Rain = 0
KSW1 250248Z 11005KT 17/15 A2972 RMK A01 T01670146  RH  087%=      5-min Rain = 0
KSW1 250249Z 12005KT 17/15 A2972 RMK A01 T01680145  RH  087%=      5-min Rain = 0
KSW1 250250Z 12004KT 17/15 A2972 RMK A01 T01680146  RH  087%=      5-min Rain = 0
KSW1 250251Z 11004KT 17/15 A2972 RMK A01 T01680147  RH  087%=      5-min Rain = 0
KSW1 250252Z 11004KT 17/15 A2972 RMK A01 T01680146  RH  087%=      5-min Rain = 0
KSW1 250253Z 11004KT 17/15 A2972 RMK A01 T01690147  RH  087%=      5-min Rain = 0
KSW1 250254Z 11004KT 17/15 A2972 RMK A01 T01690147  RH  087%=      5-min Rain = 0
KSW1 250255Z 10004KT 17/15 A2972 RMK A01 T01690147  RH  087%=      5-min Rain = 0
KSW1 250256Z 09005KT 17/15 A2973 RMK A01 T01690148  RH  087%=      5-min Rain = 0
KSW1 250257Z 06006KT 17/15 A2973 RMK A01 T01700148  RH  087%=      5-min Rain = 0
KSW1 250258Z 03017G22KT 17/15 A2975 RMK A01 T01700148  RH  087%=      5-min Rain = 0
KSW1 250259Z 01015KT 17/15 A2976 RMK A01 T01700149  RH  087%=      5-min Rain = 0
KSW1 250300Z 35017KT 17/15 A2976 RMK A01 T01690147  RH  086%=      5-min Rain = 0
KSW1 250301Z 35015G23KT 17/14 A2975 RMK A01 T01700143  RH  084%=      5-min Rain = 0
KSW1 250302Z 36013G18KT 18/12 A2975 RMK A01 T01760124  RH  071%=      5-min Rain = 0
KSW1 250303Z 36019KT 19/13 A2976 RMK A01 T01880127  RH  067%=      5-min Rain = 0
KSW1 250304Z 00016KT 19/14 A2976 RMK A01 T01890135  RH  071%=      5-min Rain = 0
KSW1 250305Z 01017KT 19/14 A2976 RMK A01 T01850137  RH  074%=      5-min Rain = 0
KSW1 250306Z 02016KT 18/14 A2976 RMK A01 T01810137  RH  075%=      5-min Rain = 0
KSW1 250307Z 02015KT 18/14 A2976 RMK A01 T01800136  RH  076%=      5-min Rain = 0
KSW1 250308Z 00015KT 18/14 A2976 RMK A01 T01800136  RH  075%=      5-min Rain = 0
KSW1 250309Z 01015KT 18/14 A2976 RMK A01 T01800137  RH  076%=      5-min Rain = 0
KSW1 250310Z 02017KT 18/14 A2976 RMK A01 T01800136  RH  076%=      5-min Rain = 0
KSW1 250311Z 03015KT 18/14 A2976 RMK A01 T01800137  RH  076%=      5-min Rain = 0
KSW1 250312Z 03015KT 18/14 A2976 RMK A01 T01800139  RH  077%=      5-min Rain = 0
KSW1 250313Z 03016KT 18/14 A2976 RMK A01 T01790139  RH  077%=      5-min Rain = 0
KSW1 250314Z 03017KT 18/14 A2977 RMK A01 T01790140  RH  078%=      5-min Rain = 0
KSW1 250315Z 03017KT 18/14 A2977 RMK A01 T01780141  RH  079%=      5-min Rain = 0
KSW1 250316Z 03019G24KT 18/14 A2977 RMK A01 T01780141  RH  079%=      5-min Rain = 0
KSW1 250317Z 03015KT 18/14 A2978 RMK A01 T01780144  RH  080%=      5-min Rain = 0
KSW1 250318Z 03017KT 18/15 A2978 RMK A01 T01770146  RH  082%=      5-min Rain = 0
KSW1 250319Z 03020KT 18/15 A2978 RMK A01 T01760147  RH  083%=      5-min Rain = 0
KSW1 250320Z 04019KT 18/15 A2979 RMK A01 T01760147  RH  083%=      5-min Rain = 0
KSW1 250321Z 04019G24KT 18/15 A2979 RMK A01 T01770149  RH  084%=      5-min Rain = 0
KSW1 250322Z 04019KT 18/15 A2979 RMK A01 T01760149  RH  084%=      5-min Rain = 0
KSW1 250323Z 04020G26KT 18/15 A2979 RMK A01 T01760150  RH  085%=      5-min Rain = 0
KSW1 250324Z 05019G24KT 18/15 A2979 RMK A01 T01760151  RH  085%=      5-min Rain = 0
KSW1 250325Z 04017KT 18/15 A2979 RMK A01 T01760152  RH  086%=      5-min Rain = 0
KSW1 250326Z 04019KT 18/15 A2979 RMK A01 T01750152  RH  086%=      5-min Rain = 0
KSW1 250327Z 05017G25KT 18/15 A2979 RMK A01 T01750152  RH  087%=      5-min Rain = 0
KSW1 250328Z 05019G24KT 18/15 A2979 RMK A01 T01750152  RH  087%=      5-min Rain = 0.01
KSW1 250329Z 05019KT 18/15 A2979 RMK A01 T01750152  RH  086%=      5-min Rain = 0
KSW1 250330Z 05017G22KT 18/15 A2979 RMK A01 T01760154  RH  087%=      5-min Rain = 0
KSW1 250331Z 05018KT 18/15 A2979 RMK A01 T01750154  RH  087%=      5-min Rain = 0
KSW1 250332Z 05018KT 18/16 A2979 RMK A01 T01750155  RH  088%=      5-min Rain = 0
KSW1 250333Z 05020G26KT 18/16 A298 RMK A01 T01750155  RH  088%=      5-min Rain = 0
KSW1 250334Z 06018G23KT 18/16 A2979 RMK A01 T01750155  RH  088%=      5-min Rain = 0
KSW1 250335Z 06023KT 18/16 A2979 RMK A01 T01750155  RH  088%=      5-min Rain = 0
KSW1 250336Z 06020KT 18/15 A2979 RMK A01 T01760154  RH  087%=      5-min Rain = 0
KSW1 250337Z 06017G23KT 18/16 A2979 RMK A01 T01760156  RH  088%=      5-min Rain = 0
KSW1 250338Z 06021G27KT 18/16 A2979 RMK A01 T01750155  RH  088%=      5-min Rain = 0
KSW1 250339Z 06020G25KT 18/16 A2979 RMK A01 T01750155  RH  088%=      5-min Rain = 0
KSW1 250340Z 06020G27KT 18/16 A2979 RMK A01 T01750155  RH  088%=      5-min Rain = 0
KSW1 250341Z 06021KT 17/16 A2979 RMK A01 T01740155  RH  088%=      5-min Rain = 0
KSW1 250342Z 06024KT 17/15 A2979 RMK A01 T01740154  RH  088%=      5-min Rain = 0
KSW1 250343Z 06023G28KT 17/15 A2979 RMK A01 T01740152  RH  087%=      5-min Rain = 0
KSW1 250344Z 06024KT 17/15 A298 RMK A01 T01740153  RH  087%=      5-min Rain = 0
KSW1 250345Z 06022G27KT 17/15 A298 RMK A01 T01740153  RH  087%=      5-min Rain = 0
KSW1 250346Z 06021G28KT 17/15 A298 RMK A01 T01740153  RH  087%=      5-min Rain = 0
KSW1 250347Z 06023G28KT 17/15 A298 RMK A01 T01740153  RH  088%=      5-min Rain = 0
KSW1 250348Z 06022G28KT 17/15 A298 RMK A01 T01740153  RH  088%=      5-min Rain = 0
KSW1 250349Z 06022KT 17/15 A2981 RMK A01 T01740153  RH  088%=      5-min Rain = 0
KSW1 250350Z 06025G31KT 17/15 A2981 RMK A01 T01730153  RH  088%=      5-min Rain = 0
KSW1 250351Z 06023KT 17/15 A2981 RMK A01 T01730153  RH  088%=      5-min Rain = 0
KSW1 250352Z 06024G29KT 17/15 A2981 RMK A01 T01730154  RH  088%=      5-min Rain = 0
KSW1 250353Z 06023G32KT 17/16 A2981 RMK A01 T01730155  RH  089%=      5-min Rain = 0
KSW1 250354Z 06027KT 17/15 A2981 RMK A01 T01720154  RH  089%=      5-min Rain = 0
KSW1 250355Z 06027G34KT 17/15 A298 RMK A01 T01720154  RH  089%=      5-min Rain = 0
KSW1 250356Z 06027G33KT 17/15 A2981 RMK A01 T01720154  RH  089%=      5-min Rain = 0
KSW1 250357Z 06024KT 17/15 A2981 RMK A01 T01720154  RH  090%=      5-min Rain = 0
KSW1 250358Z 06026KT 17/16 A2981 RMK A01 T01710155  RH  090%=      5-min Rain = 0.01
KSW1 250359Z 06026G32KT 17/16 A2981 RMK A01 T01700155  RH  090%=      5-min Rain = 0
KSW1 250400Z 06026KT 17/16 A2981 RMK A01 T01700155  RH  091%=      5-min Rain = 0
KSW1 250401Z 06027G34KT 17/16 A2981 RMK A01 T01700155  RH  091%=      5-min Rain = 0
KSW1 250402Z 06025KT 17/16 A2981 RMK A01 T01700155  RH  091%=      5-min Rain = 0
KSW1 250403Z 06028KT 17/16 A2981 RMK A01 T01690155  RH  091%=      5-min Rain = 0
KSW1 250404Z 06029G38KT 17/16 A298 RMK A01 T01690155  RH  091%=      5-min Rain = 0.01
KSW1 250405Z 06030KT 17/16 A2979 RMK A01 T01690155  RH  092%=      5-min Rain = 0
KSW1 250406Z 07032G37KT 17/16 A2979 RMK A01 T01680155  RH  092%=      5-min Rain = 0
KSW1 250407Z 07034G40KT 17/16 A2978 RMK A01 T01680155  RH  092%=      5-min Rain = 0
KSW1 250408Z 07029KT 17/16 A2978 RMK A01 T01680156  RH  093%=      5-min Rain = 0
KSW1 250409Z 08031G39KT 17/16 A2978 RMK A01 T01670156  RH  093%=      5-min Rain = 0
KSW1 250410Z 08034G39KT 17/16 A2978 RMK A01 T01660155  RH  093%=      5-min Rain = 0
KSW1 250411Z 08029G36KT 17/16 A2978 RMK A01 T01660156  RH  093%=      5-min Rain = 0
KSW1 250412Z 08027KT 17/16 A2978 RMK A01 T01670156  RH  094%=      5-min Rain = 0
KSW1 250413Z 08027G32KT 17/16 A2978 RMK A01 T01660156  RH  094%=      5-min Rain = 0
KSW1 250414Z 08027G32KT 17/16 A2977 RMK A01 T01650155  RH  094%=      5-min Rain = 0
KSW1 250415Z 07028KT 17/16 A2977 RMK A01 T01650155  RH  094%=      5-min Rain = 0
KSW1 250416Z 07027G34KT 17/16 A2977 RMK A01 T01650155  RH  094%=      5-min Rain = 0
KSW1 250417Z 07031G37KT 17/16 A2977 RMK A01 T01650155  RH  094%=      5-min Rain = 0
KSW1 250418Z 07027G33KT 17/15 A2978 RMK A01 T01650154  RH  093%=      5-min Rain = 0
KSW1 250419Z 07026G35KT 17/16 A2978 RMK A01 T01650155  RH  094%=      5-min Rain = 0
KSW1 250420Z 07027KT 17/15 A2978 RMK A01 T01650154  RH  094%=      5-min Rain = 0
KSW1 250421Z 07028KT 17/15 A2978 RMK A01 T01650154  RH  094%=      5-min Rain = 0
KSW1 250422Z 07027G33KT 16/15 A2978 RMK A01 T01640154  RH  093%=      5-min Rain = 0
KSW1 250423Z 07026KT 16/15 A2978 RMK A01 T01640153  RH  093%=      5-min Rain = 0
KSW1 250424Z 07029G34KT 16/15 A2978 RMK A01 T01640153  RH  093%=      5-min Rain = 0
KSW1 250425Z 07026G31KT 16/15 A2978 RMK A01 T01640152  RH  092%=      5-min Rain = 0.01
KSW1 250426Z 07030G35KT 17/15 A2978 RMK A01 T01650150  RH  091%=      5-min Rain = 0
KSW1 250427Z 07029KT 17/15 A2978 RMK A01 T01650150  RH  091%=      5-min Rain = 0
KSW1 250428Z 07027KT 17/15 A2978 RMK A01 T01660148  RH  090%=      5-min Rain = 0
KSW1 250429Z 07026G33KT 17/15 A2978 RMK A01 T01660148  RH  089%=      5-min Rain = 0
KSW1 250430Z 07029G36KT 17/15 A2978 RMK A01 T01670148  RH  088%=      5-min Rain = 0
KSW1 250431Z 07027G33KT 17/15 A2978 RMK A01 T01670147  RH  088%=      5-min Rain = 0
KSW1 250432Z 07028KT 17/15 A2978 RMK A01 T01670147  RH  088%=      5-min Rain = 0
KSW1 250433Z 07028G33KT 17/15 A2978 RMK A01 T01670146  RH  087%=      5-min Rain = 0
KSW1 250434Z 07024G31KT 17/15 A2978 RMK A01 T01680145  RH  087%=      5-min Rain = 0
KSW1 250435Z 07027G36KT 17/15 A2978 RMK A01 T01680146  RH  087%=      5-min Rain = 0
KSW1 250436Z 06026G33KT 17/15 A2977 RMK A01 T01680145  RH  086%=      5-min Rain = 0
KSW1 250437Z 06026G33KT 17/15 A2978 RMK A01 T01680146  RH  087%=      5-min Rain = 0
KSW1 250438Z 06025G31KT 17/15 A2978 RMK A01 T01680146  RH  087%=      5-min Rain = 0
KSW1 250439Z 07024KT 17/15 A2978 RMK A01 T01670147  RH  088%=      5-min Rain = 0
KSW1 250440Z 07026G32KT 17/15 A2978 RMK A01 T01660146  RH  088%=      5-min Rain = 0
KSW1 250441Z 07026G31KT 17/15 A2978 RMK A01 T01660145  RH  088%=      5-min Rain = 0
KSW1 250442Z 07022KT 17/15 A2977 RMK A01 T01660146  RH  088%=      5-min Rain = 0
KSW1 250443Z 07026G31KT 17/15 A2977 RMK A01 T01660146  RH  088%=      5-min Rain = 0
KSW1 250444Z 07028KT 17/14 A2978 RMK A01 T01660144  RH  087%=      5-min Rain = 0
KSW1 250445Z 06026G32KT 17/14 A2977 RMK A01 T01670144  RH  086%=      5-min Rain = 0
KSW1 250446Z 06026G32KT 17/14 A2977 RMK A01 T01670143  RH  086%=      5-min Rain = 0
KSW1 250447Z 07022G27KT 17/14 A2977 RMK A01 T01670144  RH  086%=      5-min Rain = 0
KSW1 250448Z 07025KT 17/14 A2977 RMK A01 T01660144  RH  087%=      5-min Rain = 0
KSW1 250449Z 07026G31KT 17/14 A2977 RMK A01 T01660142  RH  086%=      5-min Rain = 0
KSW1 250450Z 07024G33KT 17/14 A2977 RMK A01 T01660142  RH  085%=      5-min Rain = 0
KSW1 250451Z 07023KT 17/14 A2977 RMK A01 T01660141  RH  085%=      5-min Rain = 0
KSW1 250452Z 07026KT 17/14 A2977 RMK A01 T01660142  RH  085%=      5-min Rain = 0
KSW1 250453Z 07024G29KT 17/14 A2977 RMK A01 T01660141  RH  085%=      5-min Rain = 0
KSW1 250454Z 07023G28KT 17/14 A2977 RMK A01 T01660141  RH  085%=      5-min Rain = 0
KSW1 250455Z 07025G31KT 17/14 A2977 RMK A01 T01660141  RH  085%=      5-min Rain = 0
KSW1 250456Z 07025KT 17/14 A2977 RMK A01 T01670141  RH  084%=      5-min Rain = 0
KSW1 250457Z 07024G30KT 17/14 A2977 RMK A01 T01680140  RH  084%=      5-min Rain = 0
KSW1 250458Z 07021KT 17/14 A2977 RMK A01 T01680140  RH  084%=      5-min Rain = 0
KSW1 250459Z 07022KT 17/14 A2977 RMK A01 T01680140  RH  084%=      5-min Rain = 0

Page generated in 0.1827 seconds.